Observation data for Hefner on 05/24/2020      Previous  Date  Next       Current Mesonet Observations  Soil Data  Daily Summary Page  Observations in Plain Language
KHE1 240500Z 35013KT 19/16 A2985 RMK A01 T01850163  RH  087%=      5-min Rain = 0
KHE1 240501Z 36013KT 18/16 A2985 RMK A01 T01840164  RH  088%=      5-min Rain = 0
KHE1 240502Z 00013KT 18/16 A2985 RMK A01 T01840164  RH  088%=      5-min Rain = 0
KHE1 240503Z 36013KT 18/16 A2985 RMK A01 T01840164  RH  088%=      5-min Rain = 0
KHE1 240504Z 36012KT 18/16 A2985 RMK A01 T01840163  RH  088%=      5-min Rain = 0
KHE1 240505Z 00013KT 18/16 A2985 RMK A01 T01840164  RH  088%=      5-min Rain = 0
KHE1 240506Z 00016KT 18/16 A2985 RMK A01 T01840162  RH  087%=      5-min Rain = 0
KHE1 240507Z 36018KT 19/16 A2985 RMK A01 T01860158  RH  084%=      5-min Rain = 0
KHE1 240508Z 36016KT 19/16 A2984 RMK A01 T01880158  RH  082%=      5-min Rain = 0
KHE1 240509Z 35014KT 19/16 A2984 RMK A01 T01880161  RH  084%=      5-min Rain = 0
KHE1 240510Z 36013KT 19/16 A2984 RMK A01 T01870161  RH  085%=      5-min Rain = 0
KHE1 240511Z 36012KT 19/16 A2984 RMK A01 T01870162  RH  085%=      5-min Rain = 0
KHE1 240512Z 00012KT 19/16 A2983 RMK A01 T01870161  RH  085%=      5-min Rain = 0.01
KHE1 240513Z 01014KT 19/16 A2983 RMK A01 T01870160  RH  084%=      5-min Rain = 0
KHE1 240514Z 01014G19KT 19/16 A2982 RMK A01 T01880160  RH  084%=      5-min Rain = 0
KHE1 240515Z 01017KT 19/16 A2982 RMK A01 T01880158  RH  083%=      5-min Rain = 0
KHE1 240516Z 00016KT 19/16 A2982 RMK A01 T01890159  RH  083%=      5-min Rain = 0
KHE1 240517Z 36013KT 19/16 A2982 RMK A01 T01890160  RH  083%=      5-min Rain = 0
KHE1 240518Z 36014KT 19/16 A2982 RMK A01 T01880160  RH  083%=      5-min Rain = 0
KHE1 240519Z 00015KT 19/16 A2981 RMK A01 T01880160  RH  084%=      5-min Rain = 0
KHE1 240520Z 01016KT 19/16 A2981 RMK A01 T01880158  RH  082%=      5-min Rain = 0
KHE1 240521Z 01018KT 19/16 A2981 RMK A01 T01900155  RH  080%=      5-min Rain = 0
KHE1 240522Z 01017KT 19/16 A2981 RMK A01 T01910156  RH  080%=      5-min Rain = 0
KHE1 240523Z 01016KT 19/16 A298 RMK A01 T01920156  RH  080%=      5-min Rain = 0
KHE1 240524Z 01015G20KT 19/16 A298 RMK A01 T01910158  RH  081%=      5-min Rain = 0
KHE1 240525Z 02016KT 19/16 A2979 RMK A01 T01900157  RH  081%=      5-min Rain = 0
KHE1 240526Z 02017KT 19/15 A2979 RMK A01 T01900154  RH  080%=      5-min Rain = 0
KHE1 240527Z 02017KT 19/16 A2979 RMK A01 T01910156  RH  080%=      5-min Rain = 0
KHE1 240528Z 01016KT 19/16 A2979 RMK A01 T01910156  RH  080%=      5-min Rain = 0
KHE1 240529Z 01017G23KT 19/16 A2979 RMK A01 T01910156  RH  080%=      5-min Rain = 0
KHE1 240530Z 01018G23KT 19/15 A2979 RMK A01 T01910154  RH  079%=      5-min Rain = 0
KHE1 240531Z 01019KT 19/15 A2978 RMK A01 T01910154  RH  079%=      5-min Rain = 0
KHE1 240532Z 01018G23KT 19/15 A2978 RMK A01 T01910154  RH  079%=      5-min Rain = 0
KHE1 240533Z 01018KT 19/16 A2978 RMK A01 T01910155  RH  080%=      5-min Rain = 0
KHE1 240534Z 01019KT 19/16 A2978 RMK A01 T01900155  RH  080%=      5-min Rain = 0
KHE1 240535Z 00018G24KT 19/15 A2979 RMK A01 T01900154  RH  079%=      5-min Rain = 0
KHE1 240536Z 35018KT 19/15 A2979 RMK A01 T01910153  RH  079%=      5-min Rain = 0
KHE1 240537Z 35019KT 19/16 A298 RMK A01 T01920155  RH  079%=      5-min Rain = 0
KHE1 240538Z 35018KT 19/16 A298 RMK A01 T01920155  RH  079%=      5-min Rain = 0
KHE1 240539Z 36019KT 19/15 A2979 RMK A01 T01910154  RH  079%=      5-min Rain = 0
KHE1 240540Z 01017G23KT 19/16 A2979 RMK A01 T01920155  RH  079%=      5-min Rain = 0
KHE1 240541Z 00017KT 19/16 A2979 RMK A01 T01910157  RH  081%=      5-min Rain = 0
KHE1 240542Z 01019KT 19/16 A2979 RMK A01 T01900155  RH  080%=      5-min Rain = 0
KHE1 240543Z 01018KT 19/15 A298 RMK A01 T01900154  RH  079%=      5-min Rain = 0
KHE1 240544Z 00016KT 19/16 A298 RMK A01 T01910155  RH  080%=      5-min Rain = 0
KHE1 240545Z 00016KT 19/16 A298 RMK A01 T01910156  RH  080%=      5-min Rain = 0
KHE1 240546Z 00015KT 19/16 A2981 RMK A01 T01900155  RH  080%=      5-min Rain = 0
KHE1 240547Z 00014KT 19/16 A2981 RMK A01 T01910156  RH  080%=      5-min Rain = 0
KHE1 240548Z 00014G19KT 19/16 A2981 RMK A01 T01900156  RH  080%=      5-min Rain = 0
KHE1 240549Z 01015KT 19/16 A2981 RMK A01 T01900157  RH  081%=      5-min Rain = 0
KHE1 240550Z 01015KT 19/16 A2981 RMK A01 T01900155  RH  080%=      5-min Rain = 0
KHE1 240551Z 01013KT 19/15 A2981 RMK A01 T01900154  RH  080%=      5-min Rain = 0
KHE1 240552Z 01015KT 19/16 A2981 RMK A01 T01900155  RH  080%=      5-min Rain = 0
KHE1 240553Z 01014KT 19/15 A2981 RMK A01 T01900154  RH  079%=      5-min Rain = 0
KHE1 240554Z 01015KT 19/15 A2981 RMK A01 T01910153  RH  079%=      5-min Rain = 0
KHE1 240555Z 01014KT 19/15 A298 RMK A01 T01910153  RH  079%=      5-min Rain = 0
KHE1 240556Z 01015KT 19/15 A298 RMK A01 T01910152  RH  078%=      5-min Rain = 0
KHE1 240557Z 01015KT 19/15 A298 RMK A01 T01920152  RH  078%=      5-min Rain = 0
KHE1 240558Z 01014KT 19/15 A298 RMK A01 T01930151  RH  076%=      5-min Rain = 0
KHE1 240559Z 02014G19KT 19/15 A298 RMK A01 T01940151  RH  076%=      5-min Rain = 0
KHE1 240600Z 02013KT 19/15 A298 RMK A01 T01940151  RH  076%=      5-min Rain = 0
KHE1 240601Z 02013KT 19/15 A2979 RMK A01 T01940151  RH  076%=      5-min Rain = 0
KHE1 240602Z 02014KT 19/15 A2979 RMK A01 T01940152  RH  077%=      5-min Rain = 0
KHE1 240603Z 02012KT 19/15 A2979 RMK A01 T01940152  RH  077%=      5-min Rain = 0
KHE1 240604Z 03013KT 19/15 A2979 RMK A01 T01940152  RH  077%=      5-min Rain = 0
KHE1 240605Z 03013KT 19/15 A2979 RMK A01 T01940150  RH  076%=      5-min Rain = 0
KHE1 240606Z 03012KT 19/15 A2979 RMK A01 T01940150  RH  076%=      5-min Rain = 0
KHE1 240607Z 04011KT 20/15 A2979 RMK A01 T01950152  RH  076%=      5-min Rain = 0
KHE1 240608Z 04011KT 19/15 A2979 RMK A01 T01940153  RH  077%=      5-min Rain = 0
KHE1 240609Z 04010KT 19/15 A2979 RMK A01 T01930153  RH  078%=      5-min Rain = 0
KHE1 240610Z 04008KT 19/15 A298 RMK A01 T01930154  RH  078%=      5-min Rain = 0
KHE1 240611Z 05008KT 19/15 A298 RMK A01 T01920154  RH  079%=      5-min Rain = 0
KHE1 240612Z 07008KT 19/16 A298 RMK A01 T01920155  RH  079%=      5-min Rain = 0
KHE1 240613Z 09009KT 19/16 A298 RMK A01 T01920157  RH  080%=      5-min Rain = 0
KHE1 240614Z 10010KT 19/16 A298 RMK A01 T01910160  RH  082%=      5-min Rain = 0
KHE1 240615Z 10010KT 19/16 A298 RMK A01 T01890160  RH  083%=      5-min Rain = 0
KHE1 240616Z 10010KT 19/16 A298 RMK A01 T01880160  RH  084%=      5-min Rain = 0
KHE1 240617Z 10009KT 19/16 A298 RMK A01 T01870161  RH  085%=      5-min Rain = 0
KHE1 240618Z 10009KT 19/16 A298 RMK A01 T01860161  RH  085%=      5-min Rain = 0
KHE1 240619Z 08010KT 19/16 A298 RMK A01 T01850158  RH  084%=      5-min Rain = 0
KHE1 240620Z 08011KT 19/16 A298 RMK A01 T01860156  RH  082%=      5-min Rain = 0
KHE1 240621Z 08011KT 19/15 A298 RMK A01 T01880154  RH  081%=      5-min Rain = 0
KHE1 240622Z 10011KT 19/16 A2981 RMK A01 T01900155  RH  080%=      5-min Rain = 0
KHE1 240623Z 11012KT 19/16 A2981 RMK A01 T01900158  RH  082%=      5-min Rain = 0
KHE1 240624Z 11011KT 19/16 A2981 RMK A01 T01890159  RH  083%=      5-min Rain = 0
KHE1 240625Z 12011KT 19/16 A2981 RMK A01 T01880160  RH  084%=      5-min Rain = 0
KHE1 240626Z 11012KT 19/16 A2981 RMK A01 T01870157  RH  083%=      5-min Rain = 0
KHE1 240627Z 11012KT 19/16 A2981 RMK A01 T01870156  RH  082%=      5-min Rain = 0
KHE1 240628Z 11013KT 19/16 A2981 RMK A01 T01870158  RH  083%=      5-min Rain = 0
KHE1 240629Z 11012KT 19/16 A2981 RMK A01 T01870159  RH  084%=      5-min Rain = 0
KHE1 240630Z 12011KT 19/16 A2981 RMK A01 T01870159  RH  084%=      5-min Rain = 0
KHE1 240631Z 12011KT 19/16 A2981 RMK A01 T01860159  RH  084%=      5-min Rain = 0
KHE1 240632Z 12012KT 19/16 A2981 RMK A01 T01860159  RH  084%=      5-min Rain = 0
KHE1 240633Z 12010KT 19/16 A2981 RMK A01 T01860159  RH  084%=      5-min Rain = 0
KHE1 240634Z 12011KT 19/16 A2981 RMK A01 T01860158  RH  084%=      5-min Rain = 0
KHE1 240635Z 12011KT 19/16 A2981 RMK A01 T01860158  RH  084%=      5-min Rain = 0
KHE1 240636Z 12011KT 19/16 A2981 RMK A01 T01860158  RH  084%=      5-min Rain = 0
KHE1 240637Z 12011KT 19/16 A2981 RMK A01 T01860158  RH  083%=      5-min Rain = 0
KHE1 240638Z 11013KT 19/16 A2981 RMK A01 T01860157  RH  083%=      5-min Rain = 0
KHE1 240639Z 11013KT 19/16 A2981 RMK A01 T01870156  RH  082%=      5-min Rain = 0
KHE1 240640Z 11012KT 19/16 A2981 RMK A01 T01880156  RH  082%=      5-min Rain = 0
KHE1 240641Z 11012KT 19/16 A2981 RMK A01 T01880158  RH  082%=      5-min Rain = 0
KHE1 240642Z 11013KT 19/16 A2981 RMK A01 T01880157  RH  082%=      5-min Rain = 0
KHE1 240643Z 11013KT 19/16 A2981 RMK A01 T01890156  RH  081%=      5-min Rain = 0
KHE1 240644Z 11012KT 19/16 A298 RMK A01 T01890157  RH  081%=      5-min Rain = 0
KHE1 240645Z 11012KT 19/16 A298 RMK A01 T01890157  RH  082%=      5-min Rain = 0
KHE1 240646Z 11011KT 19/16 A298 RMK A01 T01890157  RH  081%=      5-min Rain = 0
KHE1 240647Z 11012KT 19/16 A298 RMK A01 T01890156  RH  081%=      5-min Rain = 0
KHE1 240648Z 11011KT 19/16 A298 RMK A01 T01900156  RH  081%=      5-min Rain = 0
KHE1 240649Z 11012KT 19/16 A298 RMK A01 T01900155  RH  080%=      5-min Rain = 0
KHE1 240650Z 11011KT 19/16 A298 RMK A01 T01910156  RH  080%=      5-min Rain = 0
KHE1 240651Z 11012KT 19/16 A298 RMK A01 T01910156  RH  080%=      5-min Rain = 0
KHE1 240652Z 11012KT 19/16 A2979 RMK A01 T01910155  RH  080%=      5-min Rain = 0
KHE1 240653Z 11012KT 19/16 A2979 RMK A01 T01910155  RH  080%=      5-min Rain = 0
KHE1 240654Z 11012KT 19/16 A2979 RMK A01 T01910155  RH  080%=      5-min Rain = 0
KHE1 240655Z 11011KT 19/16 A2979 RMK A01 T01910156  RH  080%=      5-min Rain = 0
KHE1 240656Z 11011KT 19/16 A2979 RMK A01 T01910155  RH  080%=      5-min Rain = 0
KHE1 240657Z 11011KT 19/15 A2979 RMK A01 T01910154  RH  079%=      5-min Rain = 0
KHE1 240658Z 11009KT 19/16 A2979 RMK A01 T01920155  RH  079%=      5-min Rain = 0
KHE1 240659Z 11009KT 19/16 A2979 RMK A01 T01920155  RH  079%=      5-min Rain = 0
KHE1 240700Z 11008KT 19/15 A2979 RMK A01 T01920154  RH  079%=      5-min Rain = 0
KHE1 240701Z 11008KT 19/16 A2979 RMK A01 T01920155  RH  079%=      5-min Rain = 0
KHE1 240702Z 12008KT 19/16 A2979 RMK A01 T01930155  RH  079%=      5-min Rain = 0
KHE1 240703Z 13008KT 19/16 A2979 RMK A01 T01920156  RH  080%=      5-min Rain = 0
KHE1 240704Z 12008KT 19/16 A2979 RMK A01 T01920157  RH  080%=      5-min Rain = 0
KHE1 240705Z 12008KT 19/16 A2979 RMK A01 T01910156  RH  080%=      5-min Rain = 0
KHE1 240706Z 13008KT 19/16 A2979 RMK A01 T01910155  RH  080%=      5-min Rain = 0
KHE1 240707Z 12008KT 19/16 A2979 RMK A01 T01910155  RH  080%=      5-min Rain = 0
KHE1 240708Z 13008KT 19/16 A2978 RMK A01 T01910155  RH  080%=      5-min Rain = 0
KHE1 240709Z 12008KT 19/16 A2978 RMK A01 T01910156  RH  080%=      5-min Rain = 0
KHE1 240710Z 12007KT 19/16 A2978 RMK A01 T01910156  RH  080%=      5-min Rain = 0
KHE1 240711Z 13007KT 19/16 A2978 RMK A01 T01900156  RH  081%=      5-min Rain = 0
KHE1 240712Z 12008KT 19/16 A2978 RMK A01 T01900156  RH  081%=      5-min Rain = 0
KHE1 240713Z 12008KT 19/16 A2979 RMK A01 T01900156  RH  081%=      5-min Rain = 0
KHE1 240714Z 12008KT 19/16 A2979 RMK A01 T01900156  RH  081%=      5-min Rain = 0
KHE1 240715Z 13008KT 19/16 A2979 RMK A01 T01900156  RH  080%=      5-min Rain = 0
KHE1 240716Z 13009KT 19/16 A2979 RMK A01 T01900156  RH  081%=      5-min Rain = 0
KHE1 240717Z 13010KT 19/16 A2979 RMK A01 T01900156  RH  080%=      5-min Rain = 0
KHE1 240718Z 13010KT 19/16 A2979 RMK A01 T01900155  RH  080%=      5-min Rain = 0
KHE1 240719Z 13010KT 19/16 A2979 RMK A01 T01910156  RH  080%=      5-min Rain = 0
KHE1 240720Z 13010KT 19/16 A2979 RMK A01 T01900157  RH  081%=      5-min Rain = 0
KHE1 240721Z 14011KT 19/16 A2979 RMK A01 T01900157  RH  081%=      5-min Rain = 0
KHE1 240722Z 14011KT 19/16 A2979 RMK A01 T01890157  RH  081%=      5-min Rain = 0
KHE1 240723Z 14011KT 19/16 A2979 RMK A01 T01890158  RH  082%=      5-min Rain = 0
KHE1 240724Z 13011KT 19/16 A2979 RMK A01 T01890158  RH  082%=      5-min Rain = 0
KHE1 240725Z 14010KT 19/16 A2979 RMK A01 T01880158  RH  083%=      5-min Rain = 0
KHE1 240726Z 14010KT 19/16 A2979 RMK A01 T01880157  RH  082%=      5-min Rain = 0
KHE1 240727Z 14011KT 19/16 A2979 RMK A01 T01890157  RH  082%=      5-min Rain = 0
KHE1 240728Z 14011KT 19/16 A2979 RMK A01 T01890157  RH  082%=      5-min Rain = 0
KHE1 240729Z 13010KT 19/16 A2979 RMK A01 T01890158  RH  082%=      5-min Rain = 0
KHE1 240730Z 14010KT 19/16 A2979 RMK A01 T01890158  RH  082%=      5-min Rain = 0
KHE1 240731Z 13010KT 19/16 A2979 RMK A01 T01890159  RH  083%=      5-min Rain = 0
KHE1 240732Z 13010KT 19/16 A2979 RMK A01 T01880159  RH  083%=      5-min Rain = 0
KHE1 240733Z 13010KT 19/16 A2979 RMK A01 T01880158  RH  083%=      5-min Rain = 0
KHE1 240734Z 13010KT 19/16 A2979 RMK A01 T01880158  RH  082%=      5-min Rain = 0
KHE1 240735Z 14008KT 19/16 A2979 RMK A01 T01890158  RH  082%=      5-min Rain = 0
KHE1 240736Z 13009KT 19/16 A2979 RMK A01 T01890159  RH  083%=      5-min Rain = 0
KHE1 240737Z 14008KT 19/16 A2979 RMK A01 T01880159  RH  083%=      5-min Rain = 0
KHE1 240738Z 14008KT 19/16 A2979 RMK A01 T01880160  RH  084%=      5-min Rain = 0
KHE1 240739Z 14008KT 19/16 A2979 RMK A01 T01870159  RH  084%=      5-min Rain = 0
KHE1 240740Z 14008KT 19/16 A2978 RMK A01 T01870160  RH  084%=      5-min Rain = 0
KHE1 240741Z 14008KT 19/16 A2978 RMK A01 T01860159  RH  084%=      5-min Rain = 0
KHE1 240742Z 14007KT 19/16 A2978 RMK A01 T01860160  RH  084%=      5-min Rain = 0
KHE1 240743Z 14007KT 19/16 A2979 RMK A01 T01860160  RH  085%=      5-min Rain = 0
KHE1 240744Z 14007KT 19/16 A2979 RMK A01 T01860160  RH  085%=      5-min Rain = 0
KHE1 240745Z 15007KT 19/16 A2978 RMK A01 T01860160  RH  085%=      5-min Rain = 0
KHE1 240746Z 16007KT 19/16 A2978 RMK A01 T01860160  RH  085%=      5-min Rain = 0
KHE1 240747Z 16006KT 19/16 A2978 RMK A01 T01860162  RH  086%=      5-min Rain = 0
KHE1 240748Z 16006KT 19/16 A2978 RMK A01 T01850162  RH  086%=      5-min Rain = 0
KHE1 240749Z 16006KT 19/16 A2978 RMK A01 T01850162  RH  086%=      5-min Rain = 0
KHE1 240750Z 16007KT 18/16 A2978 RMK A01 T01840162  RH  087%=      5-min Rain = 0
KHE1 240751Z 16006KT 18/16 A2978 RMK A01 T01840161  RH  086%=      5-min Rain = 0
KHE1 240752Z 16007KT 18/16 A2978 RMK A01 T01840161  RH  087%=      5-min Rain = 0
KHE1 240753Z 16007KT 18/16 A2978 RMK A01 T01840162  RH  087%=      5-min Rain = 0
KHE1 240754Z 16007KT 18/16 A2978 RMK A01 T01840162  RH  087%=      5-min Rain = 0
KHE1 240755Z 16007KT 18/16 A2978 RMK A01 T01830162  RH  087%=      5-min Rain = 0
KHE1 240756Z 15007KT 18/16 A2978 RMK A01 T01840162  RH  087%=      5-min Rain = 0
KHE1 240757Z 15007KT 18/16 A2978 RMK A01 T01830162  RH  087%=      5-min Rain = 0
KHE1 240758Z 15007KT 18/16 A2978 RMK A01 T01830161  RH  087%=      5-min Rain = 0
KHE1 240759Z 15007KT 18/16 A2978 RMK A01 T01830161  RH  087%=      5-min Rain = 0
KHE1 240800Z 15007KT 18/16 A2979 RMK A01 T01830161  RH  087%=      5-min Rain = 0
KHE1 240801Z 15006KT 18/16 A2979 RMK A01 T01830161  RH  087%=      5-min Rain = 0
KHE1 240802Z 15007KT 18/16 A2979 RMK A01 T01830161  RH  087%=      5-min Rain = 0
KHE1 240803Z 15006KT 18/16 A2979 RMK A01 T01830161  RH  087%=      5-min Rain = 0
KHE1 240804Z 15007KT 18/16 A2979 RMK A01 T01840161  RH  087%=      5-min Rain = 0
KHE1 240805Z 16007KT 18/16 A2979 RMK A01 T01840161  RH  087%=      5-min Rain = 0
KHE1 240806Z 15007KT 18/16 A2979 RMK A01 T01840162  RH  087%=      5-min Rain = 0
KHE1 240807Z 15006KT 18/16 A2979 RMK A01 T01840162  RH  087%=      5-min Rain = 0
KHE1 240808Z 16006KT 18/16 A2979 RMK A01 T01840162  RH  087%=      5-min Rain = 0
KHE1 240809Z 16007KT 18/16 A2979 RMK A01 T01840162  RH  087%=      5-min Rain = 0
KHE1 240810Z 16006KT 18/16 A2979 RMK A01 T01840162  RH  087%=      5-min Rain = 0
KHE1 240811Z 16007KT 18/16 A2979 RMK A01 T01840162  RH  087%=      5-min Rain = 0
KHE1 240812Z 15007KT 18/16 A2979 RMK A01 T01840161  RH  087%=      5-min Rain = 0
KHE1 240813Z 15007KT 18/16 A2979 RMK A01 T01840161  RH  087%=      5-min Rain = 0
KHE1 240814Z 15008KT 18/16 A2979 RMK A01 T01840162  RH  087%=      5-min Rain = 0
KHE1 240815Z 15007KT 18/16 A298 RMK A01 T01840162  RH  087%=      5-min Rain = 0
KHE1 240816Z 15007KT 18/16 A298 RMK A01 T01840162  RH  087%=      5-min Rain = 0
KHE1 240817Z 16008KT 18/16 A298 RMK A01 T01840162  RH  087%=      5-min Rain = 0
KHE1 240818Z 16008KT 18/16 A298 RMK A01 T01840161  RH  087%=      5-min Rain = 0
KHE1 240819Z 15008KT 18/16 A298 RMK A01 T01840161  RH  087%=      5-min Rain = 0
KHE1 240820Z 16007KT 18/16 A298 RMK A01 T01840161  RH  087%=      5-min Rain = 0
KHE1 240821Z 16008KT 18/16 A298 RMK A01 T01840161  RH  087%=      5-min Rain = 0
KHE1 240822Z 16008KT 19/16 A298 RMK A01 T01850162  RH  087%=      5-min Rain = 0
KHE1 240823Z 16009KT 19/16 A298 RMK A01 T01850162  RH  087%=      5-min Rain = 0
KHE1 240824Z 16008KT 19/16 A298 RMK A01 T01850163  RH  087%=      5-min Rain = 0
KHE1 240825Z 16007KT 19/16 A298 RMK A01 T01850163  RH  087%=      5-min Rain = 0
KHE1 240826Z 16008KT 19/16 A298 RMK A01 T01860163  RH  087%=      5-min Rain = 0
KHE1 240827Z 16008KT 19/16 A2981 RMK A01 T01870163  RH  086%=      5-min Rain = 0
KHE1 240828Z 16008KT 19/16 A2981 RMK A01 T01870163  RH  086%=      5-min Rain = 0
KHE1 240829Z 15008KT 19/16 A2981 RMK A01 T01880164  RH  086%=      5-min Rain = 0
KHE1 240830Z 15007KT 19/16 A2981 RMK A01 T01880163  RH  085%=      5-min Rain = 0
KHE1 240831Z 16008KT 19/16 A2981 RMK A01 T01890164  RH  085%=      5-min Rain = 0
KHE1 240832Z 15007KT 19/16 A2981 RMK A01 T01890163  RH  085%=      5-min Rain = 0
KHE1 240833Z 16008KT 19/16 A2981 RMK A01 T01900163  RH  084%=      5-min Rain = 0
KHE1 240834Z 16008KT 19/16 A2981 RMK A01 T01900163  RH  084%=      5-min Rain = 0
KHE1 240835Z 15008KT 19/16 A2981 RMK A01 T01910163  RH  084%=      5-min Rain = 0
KHE1 240836Z 15008KT 19/16 A2981 RMK A01 T01910162  RH  083%=      5-min Rain = 0
KHE1 240837Z 15009KT 19/16 A2981 RMK A01 T01920163  RH  084%=      5-min Rain = 0
KHE1 240838Z 15009KT 19/16 A2981 RMK A01 T01920163  RH  084%=      5-min Rain = 0
KHE1 240839Z 15008KT 19/16 A2981 RMK A01 T01920163  RH  083%=      5-min Rain = 0
KHE1 240840Z 15009KT 19/16 A2981 RMK A01 T01910163  RH  083%=      5-min Rain = 0
KHE1 240841Z 15008KT 19/16 A2981 RMK A01 T01920163  RH  084%=      5-min Rain = 0
KHE1 240842Z 15009KT 19/16 A2981 RMK A01 T01920163  RH  083%=      5-min Rain = 0
KHE1 240843Z 15008KT 19/16 A2981 RMK A01 T01920163  RH  083%=      5-min Rain = 0
KHE1 240844Z 14008KT 19/16 A2981 RMK A01 T01920164  RH  084%=      5-min Rain = 0
KHE1 240845Z 14008KT 19/16 A2981 RMK A01 T01910163  RH  084%=      5-min Rain = 0
KHE1 240846Z 14008KT 19/16 A2981 RMK A01 T01910164  RH  084%=      5-min Rain = 0
KHE1 240847Z 15009KT 19/16 A2981 RMK A01 T01900163  RH  084%=      5-min Rain = 0
KHE1 240848Z 14007KT 19/16 A2981 RMK A01 T01900163  RH  084%=      5-min Rain = 0
KHE1 240849Z 14009KT 19/16 A2981 RMK A01 T01890162  RH  084%=      5-min Rain = 0
KHE1 240850Z 14007KT 19/16 A2981 RMK A01 T01890162  RH  084%=      5-min Rain = 0
KHE1 240851Z 15008KT 19/16 A2981 RMK A01 T01880161  RH  084%=      5-min Rain = 0
KHE1 240852Z 15008KT 19/16 A2981 RMK A01 T01880162  RH  085%=      5-min Rain = 0
KHE1 240853Z 15008KT 19/16 A2981 RMK A01 T01880162  RH  085%=      5-min Rain = 0
KHE1 240854Z 15007KT 19/16 A2981 RMK A01 T01870162  RH  085%=      5-min Rain = 0
KHE1 240855Z 15007KT 19/16 A2981 RMK A01 T01870162  RH  086%=      5-min Rain = 0
KHE1 240856Z 14007KT 19/16 A2981 RMK A01 T01860162  RH  086%=      5-min Rain = 0
KHE1 240857Z 14007KT 19/16 A2981 RMK A01 T01860162  RH  086%=      5-min Rain = 0
KHE1 240858Z 14008KT 19/16 A2981 RMK A01 T01860163  RH  086%=      5-min Rain = 0
KHE1 240859Z 14008KT 19/16 A2981 RMK A01 T01860162  RH  086%=      5-min Rain = 0
KHE1 240900Z 14008KT 19/16 A2981 RMK A01 T01850162  RH  086%=      5-min Rain = 0
KHE1 240901Z 14009KT 19/16 A2981 RMK A01 T01850161  RH  086%=      5-min Rain = 0
KHE1 240902Z 13009KT 19/16 A2981 RMK A01 T01860161  RH  085%=      5-min Rain = 0
KHE1 240903Z 14009KT 19/16 A2982 RMK A01 T01870162  RH  085%=      5-min Rain = 0
KHE1 240904Z 14009KT 19/16 A2982 RMK A01 T01870161  RH  085%=      5-min Rain = 0
KHE1 240905Z 13009KT 19/16 A2982 RMK A01 T01870161  RH  085%=      5-min Rain = 0
KHE1 240906Z 13008KT 19/16 A2981 RMK A01 T01870160  RH  084%=      5-min Rain = 0
KHE1 240907Z 13007KT 19/16 A2981 RMK A01 T01870160  RH  085%=      5-min Rain = 0
KHE1 240908Z 13007KT 19/16 A2981 RMK A01 T01870160  RH  085%=      5-min Rain = 0
KHE1 240909Z 13008KT 19/16 A2982 RMK A01 T01870161  RH  085%=      5-min Rain = 0
KHE1 240910Z 13007KT 19/16 A2982 RMK A01 T01870161  RH  085%=      5-min Rain = 0
KHE1 240911Z 13007KT 19/16 A2982 RMK A01 T01870161  RH  085%=      5-min Rain = 0
KHE1 240912Z 14008KT 19/16 A2982 RMK A01 T01870161  RH  085%=      5-min Rain = 0
KHE1 240913Z 14008KT 19/16 A2982 RMK A01 T01870161  RH  085%=      5-min Rain = 0
KHE1 240914Z 14008KT 19/16 A2982 RMK A01 T01870160  RH  084%=      5-min Rain = 0
KHE1 240915Z 13008KT 19/16 A2982 RMK A01 T01870161  RH  085%=      5-min Rain = 0
KHE1 240916Z 13009KT 19/16 A2982 RMK A01 T01870161  RH  085%=      5-min Rain = 0
KHE1 240917Z 13009KT 19/16 A2982 RMK A01 T01870161  RH  085%=      5-min Rain = 0
KHE1 240918Z 14008KT 19/16 A2982 RMK A01 T01860161  RH  085%=      5-min Rain = 0
KHE1 240919Z 13009KT 19/16 A2982 RMK A01 T01860162  RH  085%=      5-min Rain = 0
KHE1 240920Z 14009KT 19/16 A2982 RMK A01 T01860161  RH  085%=      5-min Rain = 0
KHE1 240921Z 14009KT 19/16 A2982 RMK A01 T01860161  RH  086%=      5-min Rain = 0
KHE1 240922Z 14008KT 19/16 A2982 RMK A01 T01860161  RH  086%=      5-min Rain = 0
KHE1 240923Z 14008KT 19/16 A2982 RMK A01 T01860161  RH  086%=      5-min Rain = 0
KHE1 240924Z 15008KT 19/16 A2982 RMK A01 T01850162  RH  086%=      5-min Rain = 0
KHE1 240925Z 14009KT 19/16 A2982 RMK A01 T01850161  RH  086%=      5-min Rain = 0
KHE1 240926Z 15009KT 19/16 A2982 RMK A01 T01850161  RH  086%=      5-min Rain = 0
KHE1 240927Z 14009KT 19/16 A2982 RMK A01 T01850162  RH  086%=      5-min Rain = 0
KHE1 240928Z 14008KT 18/16 A2982 RMK A01 T01840161  RH  086%=      5-min Rain = 0
KHE1 240929Z 14009KT 18/16 A2982 RMK A01 T01840161  RH  087%=      5-min Rain = 0
KHE1 240930Z 14008KT 18/16 A2982 RMK A01 T01840162  RH  087%=      5-min Rain = 0
KHE1 240931Z 14009KT 18/16 A2982 RMK A01 T01840161  RH  087%=      5-min Rain = 0
KHE1 240932Z 15009KT 18/16 A2982 RMK A01 T01840161  RH  087%=      5-min Rain = 0
KHE1 240933Z 14009KT 18/16 A2982 RMK A01 T01840162  RH  087%=      5-min Rain = 0
KHE1 240934Z 15009KT 18/16 A2982 RMK A01 T01840161  RH  087%=      5-min Rain = 0
KHE1 240935Z 15008KT 18/16 A2982 RMK A01 T01840161  RH  087%=      5-min Rain = 0
KHE1 240936Z 14009KT 18/16 A2982 RMK A01 T01840162  RH  087%=      5-min Rain = 0
KHE1 240937Z 15008KT 18/16 A2982 RMK A01 T01830162  RH  087%=      5-min Rain = 0
KHE1 240938Z 14010KT 18/16 A2982 RMK A01 T01830162  RH  087%=      5-min Rain = 0
KHE1 240939Z 15010KT 18/16 A2982 RMK A01 T01830162  RH  087%=      5-min Rain = 0
KHE1 240940Z 15008KT 18/16 A2982 RMK A01 T01830161  RH  087%=      5-min Rain = 0
KHE1 240941Z 15010KT 18/16 A2982 RMK A01 T01840162  RH  087%=      5-min Rain = 0
KHE1 240942Z 15010KT 18/16 A2982 RMK A01 T01840162  RH  087%=      5-min Rain = 0
KHE1 240943Z 15010KT 18/16 A2982 RMK A01 T01840161  RH  087%=      5-min Rain = 0
KHE1 240944Z 15009KT 18/16 A2982 RMK A01 T01840161  RH  086%=      5-min Rain = 0
KHE1 240945Z 15009KT 18/16 A2982 RMK A01 T01840161  RH  086%=      5-min Rain = 0
KHE1 240946Z 15011KT 18/16 A2982 RMK A01 T01840162  RH  087%=      5-min Rain = 0
KHE1 240947Z 15010KT 18/16 A2982 RMK A01 T01840161  RH  086%=      5-min Rain = 0
KHE1 240948Z 15008KT 18/16 A2982 RMK A01 T01840161  RH  087%=      5-min Rain = 0
KHE1 240949Z 16009KT 18/16 A2982 RMK A01 T01840162  RH  087%=      5-min Rain = 0
KHE1 240950Z 16008KT 18/16 A2981 RMK A01 T01840162  RH  087%=      5-min Rain = 0
KHE1 240951Z 15009KT 18/16 A2981 RMK A01 T01840162  RH  087%=      5-min Rain = 0
KHE1 240952Z 16009KT 18/16 A2981 RMK A01 T01840162  RH  087%=      5-min Rain = 0
KHE1 240953Z 16009KT 18/16 A2981 RMK A01 T01840162  RH  087%=      5-min Rain = 0
KHE1 240954Z 16008KT 18/16 A2981 RMK A01 T01840162  RH  087%=      5-min Rain = 0
KHE1 240955Z 16008KT 18/16 A2981 RMK A01 T01840163  RH  087%=      5-min Rain = 0
KHE1 240956Z 16007KT 18/16 A2981 RMK A01 T01830162  RH  087%=      5-min Rain = 0
KHE1 240957Z 15007KT 18/16 A2981 RMK A01 T01840163  RH  088%=      5-min Rain = 0
KHE1 240958Z 15007KT 18/16 A2981 RMK A01 T01830162  RH  088%=      5-min Rain = 0
KHE1 240959Z 15007KT 18/16 A2981 RMK A01 T01830163  RH  088%=      5-min Rain = 0
KHE1 241000Z 15007KT 18/16 A2981 RMK A01 T01830163  RH  088%=      5-min Rain = 0
KHE1 241001Z 15007KT 18/16 A2981 RMK A01 T01830163  RH  088%=      5-min Rain = 0
KHE1 241002Z 15007KT 18/16 A2981 RMK A01 T01820163  RH  088%=      5-min Rain = 0
KHE1 241003Z 15008KT 18/16 A2981 RMK A01 T01830163  RH  088%=      5-min Rain = 0
KHE1 241004Z 15008KT 18/16 A2981 RMK A01 T01820163  RH  088%=      5-min Rain = 0
KHE1 241005Z 15008KT 18/16 A2981 RMK A01 T01820163  RH  089%=      5-min Rain = 0
KHE1 241006Z 15008KT 18/16 A2981 RMK A01 T01820163  RH  089%=      5-min Rain = 0
KHE1 241007Z 16007KT 18/16 A2981 RMK A01 T01820163  RH  089%=      5-min Rain = 0
KHE1 241008Z 16008KT 18/16 A2981 RMK A01 T01820163  RH  089%=      5-min Rain = 0
KHE1 241009Z 15008KT 18/16 A2981 RMK A01 T01830163  RH  089%=      5-min Rain = 0
KHE1 241010Z 15007KT 18/16 A2981 RMK A01 T01830163  RH  088%=      5-min Rain = 0
KHE1 241011Z 16008KT 18/16 A2981 RMK A01 T01830164  RH  089%=      5-min Rain = 0
KHE1 241012Z 16009KT 18/16 A2981 RMK A01 T01830164  RH  088%=      5-min Rain = 0
KHE1 241013Z 16008KT 18/16 A2981 RMK A01 T01830163  RH  088%=      5-min Rain = 0
KHE1 241014Z 16010KT 18/16 A2981 RMK A01 T01840164  RH  088%=      5-min Rain = 0
KHE1 241015Z 16009KT 18/16 A2981 RMK A01 T01840164  RH  088%=      5-min Rain = 0
KHE1 241016Z 16009KT 18/16 A2981 RMK A01 T01840164  RH  088%=      5-min Rain = 0
KHE1 241017Z 16009KT 18/16 A2981 RMK A01 T01840164  RH  088%=      5-min Rain = 0
KHE1 241018Z 16011KT 18/16 A2981 RMK A01 T01840164  RH  088%=      5-min Rain = 0
KHE1 241019Z 16010KT 19/16 A2981 RMK A01 T01850164  RH  088%=      5-min Rain = 0
KHE1 241020Z 16010KT 19/17 A2981 RMK A01 T01860165  RH  088%=      5-min Rain = 0
KHE1 241021Z 16011KT 19/16 A2982 RMK A01 T01850164  RH  087%=      5-min Rain = 0
KHE1 241022Z 16010KT 19/17 A2982 RMK A01 T01860165  RH  087%=      5-min Rain = 0
KHE1 241023Z 16010KT 19/17 A2982 RMK A01 T01860165  RH  087%=      5-min Rain = 0
KHE1 241024Z 16008KT 19/17 A2981 RMK A01 T01860165  RH  087%=      5-min Rain = 0
KHE1 241025Z 16008KT 19/17 A2981 RMK A01 T01860165  RH  088%=      5-min Rain = 0
KHE1 241026Z 17007KT 19/17 A2982 RMK A01 T01860165  RH  088%=      5-min Rain = 0
KHE1 241027Z 17009KT 19/17 A2982 RMK A01 T01860165  RH  088%=      5-min Rain = 0
KHE1 241028Z 16008KT 19/17 A2982 RMK A01 T01860166  RH  088%=      5-min Rain = 0
KHE1 241029Z 16008KT 19/17 A2982 RMK A01 T01860166  RH  088%=      5-min Rain = 0
KHE1 241030Z 17008KT 19/17 A2982 RMK A01 T01860165  RH  088%=      5-min Rain = 0
KHE1 241031Z 16007KT 19/17 A2982 RMK A01 T01860166  RH  088%=      5-min Rain = 0
KHE1 241032Z 16009KT 19/17 A2982 RMK A01 T01860166  RH  088%=      5-min Rain = 0
KHE1 241033Z 16009KT 19/17 A2982 RMK A01 T01860166  RH  088%=      5-min Rain = 0
KHE1 241034Z 17008KT 19/17 A2982 RMK A01 T01860166  RH  088%=      5-min Rain = 0
KHE1 241035Z 17008KT 19/17 A2982 RMK A01 T01860166  RH  088%=      5-min Rain = 0
KHE1 241036Z 17008KT 19/17 A2982 RMK A01 T01860166  RH  088%=      5-min Rain = 0
KHE1 241037Z 17007KT 19/17 A2982 RMK A01 T01860167  RH  088%=      5-min Rain = 0
KHE1 241038Z 17008KT 19/17 A2982 RMK A01 T01860167  RH  088%=      5-min Rain = 0
KHE1 241039Z 17007KT 19/17 A2982 RMK A01 T01860167  RH  089%=      5-min Rain = 0
KHE1 241040Z 17008KT 19/17 A2982 RMK A01 T01860167  RH  089%=      5-min Rain = 0
KHE1 241041Z 17008KT 19/17 A2982 RMK A01 T01860167  RH  089%=      5-min Rain = 0
KHE1 241042Z 17007KT 19/17 A2982 RMK A01 T01860168  RH  089%=      5-min Rain = 0
KHE1 241043Z 17008KT 19/17 A2982 RMK A01 T01860168  RH  089%=      5-min Rain = 0
KHE1 241044Z 17008KT 19/17 A2982 RMK A01 T01860168  RH  089%=      5-min Rain = 0
KHE1 241045Z 17008KT 19/17 A2982 RMK A01 T01860168  RH  089%=      5-min Rain = 0
KHE1 241046Z 16008KT 19/17 A2982 RMK A01 T01860168  RH  089%=      5-min Rain = 0
KHE1 241047Z 17010KT 19/17 A2982 RMK A01 T01860168  RH  089%=      5-min Rain = 0
KHE1 241048Z 16009KT 19/17 A2982 RMK A01 T01860167  RH  089%=      5-min Rain = 0
KHE1 241049Z 16010KT 19/17 A2982 RMK A01 T01860168  RH  089%=      5-min Rain = 0
KHE1 241050Z 16010KT 19/17 A2982 RMK A01 T01870168  RH  089%=      5-min Rain = 0
KHE1 241051Z 16009KT 19/17 A2982 RMK A01 T01870167  RH  088%=      5-min Rain = 0
KHE1 241052Z 16009KT 19/17 A2982 RMK A01 T01870167  RH  088%=      5-min Rain = 0
KHE1 241053Z 16007KT 19/17 A2982 RMK A01 T01870168  RH  088%=      5-min Rain = 0
KHE1 241054Z 16008KT 19/17 A2982 RMK A01 T01870168  RH  088%=      5-min Rain = 0
KHE1 241055Z 16008KT 19/17 A2982 RMK A01 T01870168  RH  088%=      5-min Rain = 0
KHE1 241056Z 16009KT 19/17 A2982 RMK A01 T01870168  RH  088%=      5-min Rain = 0
KHE1 241057Z 16009KT 19/17 A2982 RMK A01 T01880168  RH  088%=      5-min Rain = 0
KHE1 241058Z 16009KT 19/17 A2982 RMK A01 T01880168  RH  088%=      5-min Rain = 0
KHE1 241059Z 16008KT 19/17 A2982 RMK A01 T01880168  RH  088%=      5-min Rain = 0
KHE1 241100Z 16008KT 19/17 A2982 RMK A01 T01880168  RH  088%=      5-min Rain = 0
KHE1 241101Z 16009KT 19/17 A2982 RMK A01 T01890168  RH  088%=      5-min Rain = 0
KHE1 241102Z 16008KT 19/17 A2982 RMK A01 T01890168  RH  088%=      5-min Rain = 0
KHE1 241103Z 16008KT 19/17 A2982 RMK A01 T01890169  RH  088%=      5-min Rain = 0
KHE1 241104Z 16010KT 19/17 A2982 RMK A01 T01890169  RH  088%=      5-min Rain = 0
KHE1 241105Z 16009KT 19/17 A2982 RMK A01 T01890168  RH  088%=      5-min Rain = 0
KHE1 241106Z 16010KT 19/17 A2982 RMK A01 T01890168  RH  087%=      5-min Rain = 0
KHE1 241107Z 16009KT 19/17 A2982 RMK A01 T01890168  RH  087%=      5-min Rain = 0
KHE1 241108Z 16010KT 19/17 A2982 RMK A01 T01890168  RH  087%=      5-min Rain = 0
KHE1 241109Z 16009KT 19/17 A2982 RMK A01 T01900168  RH  087%=      5-min Rain = 0
KHE1 241110Z 16010KT 19/17 A2982 RMK A01 T01900169  RH  087%=      5-min Rain = 0
KHE1 241111Z 16009KT 19/17 A2982 RMK A01 T01900169  RH  087%=      5-min Rain = 0
KHE1 241112Z 16009KT 19/17 A2982 RMK A01 T01900169  RH  088%=      5-min Rain = 0
KHE1 241113Z 16009KT 19/17 A2982 RMK A01 T01900169  RH  088%=      5-min Rain = 0
KHE1 241114Z 16009KT 19/17 A2982 RMK A01 T01900169  RH  088%=      5-min Rain = 0
KHE1 241115Z 16009KT 19/17 A2982 RMK A01 T01900169  RH  088%=      5-min Rain = 0
KHE1 241116Z 16010KT 19/17 A2982 RMK A01 T01900169  RH  088%=      5-min Rain = 0
KHE1 241117Z 16010KT 19/17 A2982 RMK A01 T01900168  RH  087%=      5-min Rain = 0
KHE1 241118Z 15010KT 19/17 A2982 RMK A01 T01910169  RH  087%=      5-min Rain = 0
KHE1 241119Z 16009KT 19/17 A2982 RMK A01 T01910169  RH  087%=      5-min Rain = 0
KHE1 241120Z 15008KT 19/17 A2982 RMK A01 T01910169  RH  087%=      5-min Rain = 0
KHE1 241121Z 15009KT 19/17 A2982 RMK A01 T01910169  RH  087%=      5-min Rain = 0
KHE1 241122Z 15009KT 19/17 A2982 RMK A01 T01910169  RH  087%=      5-min Rain = 0
KHE1 241123Z 15010KT 19/17 A2982 RMK A01 T01910169  RH  087%=      5-min Rain = 0
KHE1 241124Z 15009KT 19/17 A2982 RMK A01 T01910169  RH  087%=      5-min Rain = 0
KHE1 241125Z 15008KT 19/17 A2982 RMK A01 T01910169  RH  087%=      5-min Rain = 0
KHE1 241126Z 15009KT 19/17 A2982 RMK A01 T01910170  RH  087%=      5-min Rain = 0
KHE1 241127Z 15009KT 19/17 A2982 RMK A01 T01910170  RH  087%=      5-min Rain = 0
KHE1 241128Z 15010KT 19/17 A2982 RMK A01 T01910170  RH  087%=      5-min Rain = 0
KHE1 241129Z 15008KT 19/17 A2983 RMK A01 T01910170  RH  087%=      5-min Rain = 0
KHE1 241130Z 15009KT 19/17 A2983 RMK A01 T01920170  RH  087%=      5-min Rain = 0
KHE1 241131Z 15008KT 19/17 A2982 RMK A01 T01920170  RH  088%=      5-min Rain = 0
KHE1 241132Z 15008KT 19/17 A2982 RMK A01 T01920171  RH  088%=      5-min Rain = 0
KHE1 241133Z 15008KT 19/17 A2983 RMK A01 T01920171  RH  088%=      5-min Rain = 0
KHE1 241134Z 15009KT 19/17 A2983 RMK A01 T01920171  RH  088%=      5-min Rain = 0
KHE1 241135Z 14009KT 19/17 A2982 RMK A01 T01920172  RH  088%=      5-min Rain = 0
KHE1 241136Z 14009KT 19/17 A2982 RMK A01 T01920171  RH  088%=      5-min Rain = 0
KHE1 241137Z 14008KT 19/17 A2982 RMK A01 T01920171  RH  088%=      5-min Rain = 0
KHE1 241138Z 14008KT 19/17 A2982 RMK A01 T01920172  RH  088%=      5-min Rain = 0
KHE1 241139Z 14007KT 19/17 A2982 RMK A01 T01920171  RH  088%=      5-min Rain = 0
KHE1 241140Z 14008KT 19/17 A2982 RMK A01 T01920172  RH  088%=      5-min Rain = 0
KHE1 241141Z 14008KT 19/17 A2982 RMK A01 T01920172  RH  088%=      5-min Rain = 0
KHE1 241142Z 14009KT 19/17 A2982 RMK A01 T01920172  RH  088%=      5-min Rain = 0
KHE1 241143Z 14009KT 19/17 A2982 RMK A01 T01920172  RH  088%=      5-min Rain = 0
KHE1 241144Z 14010KT 19/17 A2982 RMK A01 T01920172  RH  088%=      5-min Rain = 0
KHE1 241145Z 14010KT 19/17 A2982 RMK A01 T01920172  RH  088%=      5-min Rain = 0
KHE1 241146Z 13010KT 19/17 A2982 RMK A01 T01920172  RH  088%=      5-min Rain = 0
KHE1 241147Z 13008KT 19/17 A2982 RMK A01 T01920172  RH  088%=      5-min Rain = 0
KHE1 241148Z 13009KT 19/17 A2982 RMK A01 T01920172  RH  088%=      5-min Rain = 0
KHE1 241149Z 13011KT 19/17 A2982 RMK A01 T01920172  RH  088%=      5-min Rain = 0
KHE1 241150Z 13009KT 19/17 A2982 RMK A01 T01930172  RH  088%=      5-min Rain = 0
KHE1 241151Z 13009KT 19/17 A2982 RMK A01 T01920172  RH  088%=      5-min Rain = 0
KHE1 241152Z 13010KT 19/17 A2982 RMK A01 T01930172  RH  088%=      5-min Rain = 0
KHE1 241153Z 13011KT 19/17 A2982 RMK A01 T01920172  RH  088%=      5-min Rain = 0
KHE1 241154Z 13010KT 19/17 A2982 RMK A01 T01930172  RH  088%=      5-min Rain = 0
KHE1 241155Z 13011KT 19/17 A2982 RMK A01 T01930172  RH  088%=      5-min Rain = 0
KHE1 241156Z 13010KT 19/17 A2982 RMK A01 T01930172  RH  088%=      5-min Rain = 0
KHE1 241157Z 13009KT 19/17 A2982 RMK A01 T01930172  RH  088%=      5-min Rain = 0
KHE1 241158Z 13010KT 19/17 A2982 RMK A01 T01930173  RH  088%=      5-min Rain = 0
KHE1 241159Z 13010KT 19/17 A2982 RMK A01 T01930173  RH  088%=      5-min Rain = 0
KHE1 241200Z 13009KT 19/17 A2982 RMK A01 T01930173  RH  088%=      5-min Rain = 0
KHE1 241201Z 13009KT 19/17 A2982 RMK A01 T01930173  RH  088%=      5-min Rain = 0
KHE1 241202Z 13009KT 19/17 A2982 RMK A01 T01930174  RH  089%=      5-min Rain = 0
KHE1 241203Z 13010KT 19/17 A2982 RMK A01 T01940174  RH  088%=      5-min Rain = 0
KHE1 241204Z 13010KT 19/17 A2982 RMK A01 T01940174  RH  088%=      5-min Rain = 0
KHE1 241205Z 13009KT 19/17 A2982 RMK A01 T01940174  RH  088%=      5-min Rain = 0
KHE1 241206Z 13010KT 19/18 A2982 RMK A01 T01940175  RH  088%=      5-min Rain = 0
KHE1 241207Z 14011KT 20/17 A2982 RMK A01 T01950174  RH  088%=      5-min Rain = 0
KHE1 241208Z 14010KT 20/18 A2982 RMK A01 T01950175  RH  088%=      5-min Rain = 0
KHE1 241209Z 13011KT 20/18 A2982 RMK A01 T01950175  RH  088%=      5-min Rain = 0
KHE1 241210Z 13010KT 20/18 A2982 RMK A01 T01960176  RH  088%=      5-min Rain = 0
KHE1 241211Z 14011KT 20/18 A2982 RMK A01 T01970176  RH  088%=      5-min Rain = 0
KHE1 241212Z 14012KT 20/18 A2982 RMK A01 T01960176  RH  088%=      5-min Rain = 0
KHE1 241213Z 13010KT 20/18 A2982 RMK A01 T01970177  RH  088%=      5-min Rain = 0
KHE1 241214Z 14010KT 20/18 A2982 RMK A01 T01960177  RH  088%=      5-min Rain = 0
KHE1 241215Z 14011KT 20/18 A2982 RMK A01 T01960177  RH  088%=      5-min Rain = 0
KHE1 241216Z 13011KT 20/18 A2982 RMK A01 T01970177  RH  088%=      5-min Rain = 0
KHE1 241217Z 14010KT 20/18 A2982 RMK A01 T01970177  RH  088%=      5-min Rain = 0
KHE1 241218Z 14010KT 20/18 A2982 RMK A01 T01970177  RH  088%=      5-min Rain = 0
KHE1 241219Z 14010KT 20/18 A2982 RMK A01 T01970178  RH  088%=      5-min Rain = 0
KHE1 241220Z 14011KT 20/18 A2982 RMK A01 T01970178  RH  089%=      5-min Rain = 0
KHE1 241221Z 14011KT 20/18 A2982 RMK A01 T01970178  RH  089%=      5-min Rain = 0
KHE1 241222Z 14011KT 20/18 A2982 RMK A01 T01970178  RH  089%=      5-min Rain = 0
KHE1 241223Z 14011KT 20/18 A2982 RMK A01 T01970178  RH  089%=      5-min Rain = 0
KHE1 241224Z 14011KT 20/18 A2982 RMK A01 T01970178  RH  088%=      5-min Rain = 0
KHE1 241225Z 14010KT 20/18 A2982 RMK A01 T01980178  RH  088%=      5-min Rain = 0
KHE1 241226Z 14009KT 20/18 A2982 RMK A01 T01980179  RH  089%=      5-min Rain = 0
KHE1 241227Z 14010KT 20/18 A2982 RMK A01 T01990179  RH  088%=      5-min Rain = 0
KHE1 241228Z 14012G17KT 20/18 A2982 RMK A01 T01990179  RH  088%=      5-min Rain = 0
KHE1 241229Z 14010KT 20/18 A2982 RMK A01 T02000180  RH  088%=      5-min Rain = 0
KHE1 241230Z 14009KT 20/18 A2983 RMK A01 T02000180  RH  088%=      5-min Rain = 0
KHE1 241231Z 14010KT 20/18 A2983 RMK A01 T02000180  RH  088%=      5-min Rain = 0
KHE1 241232Z 14011KT 20/18 A2983 RMK A01 T02010180  RH  088%=      5-min Rain = 0
KHE1 241233Z 14012KT 20/18 A2983 RMK A01 T02010180  RH  088%=      5-min Rain = 0
KHE1 241234Z 15012KT 20/18 A2983 RMK A01 T02010180  RH  088%=      5-min Rain = 0
KHE1 241235Z 14011KT 20/18 A2983 RMK A01 T02020181  RH  088%=      5-min Rain = 0
KHE1 241236Z 15010KT 20/18 A2983 RMK A01 T02020181  RH  088%=      5-min Rain = 0
KHE1 241237Z 15011KT 20/18 A2983 RMK A01 T02020181  RH  088%=      5-min Rain = 0
KHE1 241238Z 15012KT 20/18 A2983 RMK A01 T02030181  RH  087%=      5-min Rain = 0
KHE1 241239Z 14012KT 20/18 A2983 RMK A01 T02020181  RH  087%=      5-min Rain = 0
KHE1 241240Z 15011G16KT 20/18 A2983 RMK A01 T02020181  RH  087%=      5-min Rain = 0
KHE1 241241Z 15012KT 20/18 A2983 RMK A01 T02030181  RH  087%=      5-min Rain = 0
KHE1 241242Z 15013KT 20/18 A2983 RMK A01 T02030181  RH  087%=      5-min Rain = 0
KHE1 241243Z 14013KT 20/18 A2983 RMK A01 T02030181  RH  087%=      5-min Rain = 0
KHE1 241244Z 15010KT 20/18 A2983 RMK A01 T02030182  RH  087%=      5-min Rain = 0
KHE1 241245Z 14013KT 20/18 A2983 RMK A01 T02030182  RH  087%=      5-min Rain = 0
KHE1 241246Z 15012KT 20/18 A2983 RMK A01 T02030181  RH  087%=      5-min Rain = 0
KHE1 241247Z 14011KT 20/18 A2983 RMK A01 T02040182  RH  087%=      5-min Rain = 0
KHE1 241248Z 15013KT 20/18 A2983 RMK A01 T02040182  RH  087%=      5-min Rain = 0
KHE1 241249Z 15013KT 20/18 A2983 RMK A01 T02040182  RH  087%=      5-min Rain = 0
KHE1 241250Z 15011KT 20/18 A2983 RMK A01 T02030181  RH  087%=      5-min Rain = 0
KHE1 241251Z 15012KT 20/18 A2983 RMK A01 T02020181  RH  088%=      5-min Rain = 0
KHE1 241252Z 14012G17KT 20/18 A2983 RMK A01 T02020182  RH  088%=      5-min Rain = 0
KHE1 241253Z 15013KT 20/18 A2984 RMK A01 T02020182  RH  088%=      5-min Rain = 0
KHE1 241254Z 14012KT 20/18 A2983 RMK A01 T02030182  RH  088%=      5-min Rain = 0
KHE1 241255Z 14014KT 20/18 A2983 RMK A01 T02040183  RH  088%=      5-min Rain = 0
KHE1 241256Z 15010KT 20/18 A2984 RMK A01 T02040183  RH  087%=      5-min Rain = 0
KHE1 241257Z 15011KT 21/18 A2984 RMK A01 T02050184  RH  088%=      5-min Rain = 0
KHE1 241258Z 15012KT 21/18 A2984 RMK A01 T02060184  RH  087%=      5-min Rain = 0
KHE1 241259Z 15012KT 21/18 A2984 RMK A01 T02060183  RH  087%=      5-min Rain = 0
KHE1 241300Z 14011G16KT 21/18 A2984 RMK A01 T02070184  RH  087%=      5-min Rain = 0
KHE1 241301Z 14014KT 21/18 A2984 RMK A01 T02070183  RH  086%=      5-min Rain = 0
KHE1 241302Z 15011KT 21/18 A2984 RMK A01 T02070184  RH  086%=      5-min Rain = 0
KHE1 241303Z 15011KT 21/19 A2984 RMK A01 T02080185  RH  087%=      5-min Rain = 0
KHE1 241304Z 15014KT 21/19 A2984 RMK A01 T02080185  RH  086%=      5-min Rain = 0
KHE1 241305Z 14015KT 21/18 A2984 RMK A01 T02080183  RH  086%=      5-min Rain = 0
KHE1 241306Z 15011KT 21/18 A2984 RMK A01 T02080184  RH  086%=      5-min Rain = 0
KHE1 241307Z 15013KT 21/18 A2984 RMK A01 T02080184  RH  086%=      5-min Rain = 0
KHE1 241308Z 15012KT 21/18 A2984 RMK A01 T02080184  RH  086%=      5-min Rain = 0
KHE1 241309Z 16013KT 21/18 A2984 RMK A01 T02080184  RH  086%=      5-min Rain = 0
KHE1 241310Z 15015KT 21/18 A2984 RMK A01 T02080184  RH  086%=      5-min Rain = 0
KHE1 241311Z 16014KT 21/18 A2984 RMK A01 T02090184  RH  086%=      5-min Rain = 0
KHE1 241312Z 15015KT 21/18 A2984 RMK A01 T02090184  RH  086%=      5-min Rain = 0
KHE1 241313Z 15014KT 21/18 A2984 RMK A01 T02080184  RH  086%=      5-min Rain = 0
KHE1 241314Z 16013KT 21/18 A2984 RMK A01 T02090184  RH  086%=      5-min Rain = 0
KHE1 241315Z 16012KT 21/19 A2984 RMK A01 T02090185  RH  086%=      5-min Rain = 0
KHE1 241316Z 16012KT 21/19 A2984 RMK A01 T02100185  RH  086%=      5-min Rain = 0
KHE1 241317Z 15013KT 21/19 A2984 RMK A01 T02100185  RH  085%=      5-min Rain = 0
KHE1 241318Z 15012KT 21/19 A2984 RMK A01 T02110185  RH  085%=      5-min Rain = 0
KHE1 241319Z 15010KT 21/19 A2984 RMK A01 T02110186  RH  085%=      5-min Rain = 0
KHE1 241320Z 16014KT 21/19 A2984 RMK A01 T02120185  RH  085%=      5-min Rain = 0
KHE1 241321Z 16012KT 21/19 A2984 RMK A01 T02110185  RH  085%=      5-min Rain = 0
KHE1 241322Z 16013KT 21/19 A2984 RMK A01 T02110185  RH  085%=      5-min Rain = 0
KHE1 241323Z 16013KT 21/19 A2984 RMK A01 T02110185  RH  085%=      5-min Rain = 0
KHE1 241324Z 16014KT 21/18 A2984 RMK A01 T02100184  RH  085%=      5-min Rain = 0
KHE1 241325Z 16013KT 21/18 A2984 RMK A01 T02080184  RH  086%=      5-min Rain = 0
KHE1 241326Z 16013KT 21/18 A2984 RMK A01 T02080184  RH  086%=      5-min Rain = 0
KHE1 241327Z 15011KT 21/19 A2984 RMK A01 T02070185  RH  087%=      5-min Rain = 0
KHE1 241328Z 16011KT 21/19 A2984 RMK A01 T02070185  RH  087%=      5-min Rain = 0
KHE1 241329Z 16011KT 21/19 A2984 RMK A01 T02070185  RH  087%=      5-min Rain = 0
KHE1 241330Z 16012KT 21/19 A2984 RMK A01 T02070185  RH  087%=      5-min Rain = 0
KHE1 241331Z 15013KT 21/19 A2984 RMK A01 T02070185  RH  087%=      5-min Rain = 0
KHE1 241332Z 16010KT 21/19 A2984 RMK A01 T02070185  RH  087%=      5-min Rain = 0
KHE1 241333Z 16013G18KT 21/19 A2984 RMK A01 T02070186  RH  087%=      5-min Rain = 0
KHE1 241334Z 16012KT 21/19 A2984 RMK A01 T02080185  RH  087%=      5-min Rain = 0
KHE1 241335Z 16014G19KT 21/19 A2984 RMK A01 T02080186  RH  087%=      5-min Rain = 0
KHE1 241336Z 16014KT 21/19 A2984 RMK A01 T02090186  RH  087%=      5-min Rain = 0
KHE1 241337Z 16014KT 21/19 A2984 RMK A01 T02090186  RH  086%=      5-min Rain = 0
KHE1 241338Z 16012KT 21/19 A2984 RMK A01 T02090186  RH  086%=      5-min Rain = 0
KHE1 241339Z 17014G20KT 21/19 A2984 RMK A01 T02100187  RH  087%=      5-min Rain = 0
KHE1 241340Z 16015KT 21/19 A2984 RMK A01 T02100186  RH  086%=      5-min Rain = 0
KHE1 241341Z 16015KT 21/19 A2984 RMK A01 T02100186  RH  086%=      5-min Rain = 0
KHE1 241342Z 16015KT 21/19 A2984 RMK A01 T02100186  RH  086%=      5-min Rain = 0
KHE1 241343Z 16013KT 21/19 A2984 RMK A01 T02110187  RH  086%=      5-min Rain = 0
KHE1 241344Z 16013KT 21/19 A2984 RMK A01 T02120187  RH  086%=      5-min Rain = 0
KHE1 241345Z 17014KT 21/19 A2984 RMK A01 T02140188  RH  086%=      5-min Rain = 0
KHE1 241346Z 17015KT 22/19 A2984 RMK A01 T02150188  RH  084%=      5-min Rain = 0
KHE1 241347Z 16011KT 22/19 A2984 RMK A01 T02160189  RH  084%=      5-min Rain = 0
KHE1 241348Z 17014KT 22/19 A2984 RMK A01 T02180189  RH  084%=      5-min Rain = 0
KHE1 241349Z 17014KT 22/19 A2984 RMK A01 T02190189  RH  083%=      5-min Rain = 0
KHE1 241350Z 16015KT 22/19 A2984 RMK A01 T02200189  RH  083%=      5-min Rain = 0
KHE1 241351Z 17015KT 22/19 A2984 RMK A01 T02200189  RH  082%=      5-min Rain = 0
KHE1 241352Z 17016KT 22/19 A2984 RMK A01 T02210189  RH  082%=      5-min Rain = 0
KHE1 241353Z 17013KT 22/19 A2984 RMK A01 T02220188  RH  081%=      5-min Rain = 0
KHE1 241354Z 17012G17KT 22/19 A2984 RMK A01 T02220190  RH  082%=      5-min Rain = 0
KHE1 241355Z 17016KT 22/19 A2984 RMK A01 T02240190  RH  081%=      5-min Rain = 0
KHE1 241356Z 17014KT 23/19 A2984 RMK A01 T02250188  RH  080%=      5-min Rain = 0
KHE1 241357Z 17014KT 23/19 A2984 RMK A01 T02260189  RH  080%=      5-min Rain = 0
KHE1 241358Z 16017KT 23/19 A2984 RMK A01 T02270188  RH  078%=      5-min Rain = 0
KHE1 241359Z 17016KT 23/19 A2984 RMK A01 T02290187  RH  077%=      5-min Rain = 0
KHE1 241400Z 17017KT 23/19 A2984 RMK A01 T02290187  RH  077%=      5-min Rain = 0
KHE1 241401Z 16014KT 23/19 A2984 RMK A01 T02300188  RH  077%=      5-min Rain = 0
KHE1 241402Z 16016KT 23/19 A2984 RMK A01 T02310187  RH  076%=      5-min Rain = 0
KHE1 241403Z 16017KT 23/19 A2984 RMK A01 T02320186  RH  075%=      5-min Rain = 0
KHE1 241404Z 17013KT 23/19 A2984 RMK A01 T02320186  RH  075%=      5-min Rain = 0
KHE1 241405Z 16013KT 23/19 A2984 RMK A01 T02320188  RH  076%=      5-min Rain = 0
KHE1 241406Z 16014KT 23/19 A2984 RMK A01 T02340186  RH  075%=      5-min Rain = 0
KHE1 241407Z 16015KT 23/19 A2984 RMK A01 T02340186  RH  074%=      5-min Rain = 0
KHE1 241408Z 16013KT 23/19 A2984 RMK A01 T02330187  RH  075%=      5-min Rain = 0
KHE1 241409Z 17015KT 23/19 A2984 RMK A01 T02340186  RH  075%=      5-min Rain = 0
KHE1 241410Z 17015KT 23/18 A2984 RMK A01 T02340184  RH  074%=      5-min Rain = 0
KHE1 241411Z 17013KT 23/19 A2984 RMK A01 T02340186  RH  074%=      5-min Rain = 0
KHE1 241412Z 18014KT 24/19 A2984 RMK A01 T02350185  RH  074%=      5-min Rain = 0
KHE1 241413Z 17011G16KT 24/19 A2984 RMK A01 T02350187  RH  074%=      5-min Rain = 0
KHE1 241414Z 18012KT 24/19 A2984 RMK A01 T02370188  RH  074%=      5-min Rain = 0
KHE1 241415Z 18015KT 24/19 A2984 RMK A01 T02380186  RH  072%=      5-min Rain = 0
KHE1 241416Z 18013KT 24/19 A2984 RMK A01 T02380185  RH  072%=      5-min Rain = 0
KHE1 241417Z 18014KT 24/19 A2984 RMK A01 T02380185  RH  072%=      5-min Rain = 0
KHE1 241418Z 17017KT 24/18 A2984 RMK A01 T02380182  RH  071%=      5-min Rain = 0
KHE1 241419Z 17013KT 24/18 A2984 RMK A01 T02380183  RH  071%=      5-min Rain = 0
KHE1 241420Z 16013KT 24/18 A2984 RMK A01 T02380183  RH  071%=      5-min Rain = 0
KHE1 241421Z 17013KT 24/18 A2984 RMK A01 T02380184  RH  071%=      5-min Rain = 0
KHE1 241422Z 17014KT 24/18 A2984 RMK A01 T02380182  RH  071%=      5-min Rain = 0
KHE1 241423Z 17014G19KT 24/18 A2984 RMK A01 T02390184  RH  072%=      5-min Rain = 0
KHE1 241424Z 17016KT 24/18 A2984 RMK A01 T02390180  RH  069%=      5-min Rain = 0
KHE1 241425Z 18014G19KT 24/18 A2984 RMK A01 T02380181  RH  070%=      5-min Rain = 0
KHE1 241426Z 17012G17KT 24/18 A2984 RMK A01 T02380183  RH  071%=      5-min Rain = 0
KHE1 241427Z 17013KT 24/18 A2984 RMK A01 T02410183  RH  070%=      5-min Rain = 0
KHE1 241428Z 17012KT 24/18 A2984 RMK A01 T02430184  RH  070%=      5-min Rain = 0
KHE1 241429Z 17013KT 24/18 A2984 RMK A01 T02430182  RH  069%=      5-min Rain = 0
KHE1 241430Z 18014KT 24/18 A2984 RMK A01 T02430182  RH  069%=      5-min Rain = 0
KHE1 241431Z 19013KT 24/18 A2984 RMK A01 T02430181  RH  068%=      5-min Rain = 0
KHE1 241432Z 18014KT 24/18 A2984 RMK A01 T02440183  RH  069%=      5-min Rain = 0
KHE1 241433Z 18013KT 25/18 A2984 RMK A01 T02450183  RH  068%=      5-min Rain = 0
KHE1 241434Z 17014KT 25/18 A2984 RMK A01 T02450181  RH  067%=      5-min Rain = 0
KHE1 241435Z 18015KT 25/18 A2985 RMK A01 T02450182  RH  068%=      5-min Rain = 0
KHE1 241436Z 18015KT 25/18 A2985 RMK A01 T02450182  RH  068%=      5-min Rain = 0
KHE1 241437Z 17014KT 25/18 A2985 RMK A01 T02460182  RH  068%=      5-min Rain = 0
KHE1 241438Z 17015KT 25/18 A2985 RMK A01 T02460181  RH  067%=      5-min Rain = 0
KHE1 241439Z 17012KT 25/18 A2984 RMK A01 T02460181  RH  067%=      5-min Rain = 0
KHE1 241440Z 18013KT 25/18 A2985 RMK A01 T02480184  RH  067%=      5-min Rain = 0
KHE1 241441Z 18014KT 25/18 A2985 RMK A01 T02490182  RH  066%=      5-min Rain = 0
KHE1 241442Z 18013KT 25/18 A2985 RMK A01 T02490183  RH  067%=      5-min Rain = 0
KHE1 241443Z 19013KT 25/18 A2985 RMK A01 T02490183  RH  067%=      5-min Rain = 0
KHE1 241444Z 20012KT 25/18 A2985 RMK A01 T02500183  RH  066%=      5-min Rain = 0
KHE1 241445Z 20015KT 25/18 A2984 RMK A01 T02500182  RH  066%=      5-min Rain = 0
KHE1 241446Z 20014KT 25/18 A2985 RMK A01 T02500181  RH  065%=      5-min Rain = 0
KHE1 241447Z 19011G17KT 25/18 A2985 RMK A01 T02500181  RH  066%=      5-min Rain = 0
KHE1 241448Z 20015KT 25/18 A2985 RMK A01 T02510183  RH  066%=      5-min Rain = 0
KHE1 241449Z 19015KT 25/18 A2985 RMK A01 T02510180  RH  065%=      5-min Rain = 0
KHE1 241450Z 19013KT 25/18 A2985 RMK A01 T02510181  RH  065%=      5-min Rain = 0
KHE1 241451Z 19015KT 25/18 A2985 RMK A01 T02510182  RH  065%=      5-min Rain = 0
KHE1 241452Z 19013KT 25/18 A2985 RMK A01 T02520180  RH  064%=      5-min Rain = 0
KHE1 241453Z 20013KT 25/18 A2985 RMK A01 T02520182  RH  065%=      5-min Rain = 0
KHE1 241454Z 19014KT 25/18 A2985 RMK A01 T02530182  RH  065%=      5-min Rain = 0
KHE1 241455Z 19012KT 25/18 A2985 RMK A01 T02530182  RH  064%=      5-min Rain = 0
KHE1 241456Z 20012KT 25/18 A2985 RMK A01 T02540183  RH  065%=      5-min Rain = 0
KHE1 241457Z 19012KT 26/18 A2985 RMK A01 T02560182  RH  063%=      5-min Rain = 0
KHE1 241458Z 19016KT 26/18 A2985 RMK A01 T02580181  RH  063%=      5-min Rain = 0
KHE1 241459Z 19012KT 26/18 A2985 RMK A01 T02560179  RH  062%=      5-min Rain = 0
KHE1 241500Z 20011KT 26/18 A2985 RMK A01 T02560181  RH  063%=      5-min Rain = 0
KHE1 241501Z 20013KT 26/18 A2985 RMK A01 T02570180  RH  063%=      5-min Rain = 0
KHE1 241502Z 19013KT 26/18 A2985 RMK A01 T02570180  RH  062%=      5-min Rain = 0
KHE1 241503Z 19013KT 26/18 A2985 RMK A01 T02570177  RH  061%=      5-min Rain = 0
KHE1 241504Z 19011KT 26/18 A2985 RMK A01 T02570177  RH  061%=      5-min Rain = 0
KHE1 241505Z 18012KT 26/18 A2985 RMK A01 T02590180  RH  062%=      5-min Rain = 0
KHE1 241506Z 19009KT 26/18 A2985 RMK A01 T02600181  RH  062%=      5-min Rain = 0
KHE1 241507Z 18011KT 26/18 A2985 RMK A01 T02620177  RH  060%=      5-min Rain = 0
KHE1 241508Z 18014KT 26/18 A2985 RMK A01 T02620176  RH  059%=      5-min Rain = 0
KHE1 241509Z 19010KT 26/18 A2985 RMK A01 T02630177  RH  059%=      5-min Rain = 0
KHE1 241510Z 20012KT 26/18 A2985 RMK A01 T02630179  RH  060%=      5-min Rain = 0
KHE1 241511Z 20013KT 26/18 A2985 RMK A01 T02630178  RH  060%=      5-min Rain = 0
KHE1 241512Z 19012KT 26/18 A2985 RMK A01 T02630179  RH  060%=      5-min Rain = 0
KHE1 241513Z 19012KT 26/18 A2985 RMK A01 T02630176  RH  059%=      5-min Rain = 0
KHE1 241514Z 19012KT 26/18 A2984 RMK A01 T02640176  RH  058%=      5-min Rain = 0
KHE1 241515Z 19014KT 26/18 A2984 RMK A01 T02640175  RH  058%=      5-min Rain = 0
KHE1 241516Z 18014KT 26/17 A2984 RMK A01 T02640171  RH  056%=      5-min Rain = 0
KHE1 241517Z 19013KT 26/17 A2984 RMK A01 T02640171  RH  057%=      5-min Rain = 0
KHE1 241518Z 19012KT 26/17 A2984 RMK A01 T02640171  RH  057%=      5-min Rain = 0
KHE1 241519Z 19014KT 27/17 A2984 RMK A01 T02680173  RH  056%=      5-min Rain = 0
KHE1 241520Z 19017KT 27/17 A2984 RMK A01 T02700169  RH  054%=      5-min Rain = 0
KHE1 241521Z 19012KT 27/17 A2984 RMK A01 T02680170  RH  055%=      5-min Rain = 0
KHE1 241522Z 19014KT 27/17 A2984 RMK A01 T02680172  RH  056%=      5-min Rain = 0
KHE1 241523Z 19011KT 27/17 A2984 RMK A01 T02680172  RH  056%=      5-min Rain = 0
KHE1 241524Z 18012KT 27/17 A2984 RMK A01 T02690174  RH  056%=      5-min Rain = 0
KHE1 241525Z 18015KT 27/17 A2984 RMK A01 T02720172  RH  054%=      5-min Rain = 0
KHE1 241526Z 18015G20KT 27/17 A2984 RMK A01 T02720168  RH  053%=      5-min Rain = 0
KHE1 241527Z 18016KT 27/16 A2984 RMK A01 T02720162  RH  051%=      5-min Rain = 0
KHE1 241528Z 18012KT 27/17 A2984 RMK A01 T02720165  RH  052%=      5-min Rain = 0
KHE1 241529Z 19012G17KT 27/17 A2984 RMK A01 T02730166  RH  052%=      5-min Rain = 0
KHE1 241530Z 20016KT 27/17 A2984 RMK A01 T02740165  RH  051%=      5-min Rain = 0
KHE1 241531Z 19014KT 27/17 A2984 RMK A01 T02740165  RH  051%=      5-min Rain = 0
KHE1 241532Z 18014G19KT 27/16 A2984 RMK A01 T02730164  RH  051%=      5-min Rain = 0
KHE1 241533Z 18014KT 27/17 A2984 RMK A01 T02740165  RH  051%=      5-min Rain = 0
KHE1 241534Z 17015G20KT 28/16 A2984 RMK A01 T02750164  RH  051%=      5-min Rain = 0
KHE1 241535Z 18016G21KT 28/16 A2984 RMK A01 T02760162  RH  050%=      5-min Rain = 0
KHE1 241536Z 18012KT 28/17 A2984 RMK A01 T02760168  RH  052%=      5-min Rain = 0
KHE1 241537Z 17018KT 28/17 A2984 RMK A01 T02790166  RH  050%=      5-min Rain = 0
KHE1 241538Z 17020KT 28/16 A2983 RMK A01 T02800160  RH  048%=      5-min Rain = 0
KHE1 241539Z 17019KT 28/16 A2983 RMK A01 T02790158  RH  048%=      5-min Rain = 0
KHE1 241540Z 17015G20KT 28/16 A2983 RMK A01 T02780157  RH  048%=      5-min Rain = 0
KHE1 241541Z 18017KT 28/16 A2983 RMK A01 T02780161  RH  049%=      5-min Rain = 0
KHE1 241542Z 18015KT 28/16 A2983 RMK A01 T02790161  RH  049%=      5-min Rain = 0
KHE1 241543Z 18015KT 28/16 A2983 RMK A01 T02800162  RH  049%=      5-min Rain = 0
KHE1 241544Z 18014KT 28/17 A2983 RMK A01 T02810167  RH  050%=      5-min Rain = 0
KHE1 241545Z 18014G20KT 28/16 A2983 RMK A01 T02840164  RH  048%=      5-min Rain = 0
KHE1 241546Z 17019G25KT 28/16 A2983 RMK A01 T02840161  RH  047%=      5-min Rain = 0
KHE1 241547Z 17020KT 28/16 A2983 RMK A01 T02820158  RH  047%=      5-min Rain = 0
KHE1 241548Z 18017G22KT 28/16 A2983 RMK A01 T02800157  RH  047%=      5-min Rain = 0
KHE1 241549Z 17020KT 28/16 A2983 RMK A01 T02800159  RH  048%=      5-min Rain = 0
KHE1 241550Z 18020KT 28/16 A2983 RMK A01 T02800158  RH  047%=      5-min Rain = 0
KHE1 241551Z 17018KT 28/16 A2983 RMK A01 T02800160  RH  048%=      5-min Rain = 0
KHE1 241552Z 17017KT 28/16 A2983 RMK A01 T02800159  RH  048%=      5-min Rain = 0
KHE1 241553Z 18020G25KT 28/16 A2983 RMK A01 T02800161  RH  048%=      5-min Rain = 0
KHE1 241554Z 18018G23KT 28/16 A2983 RMK A01 T02810158  RH  047%=      5-min Rain = 0
KHE1 241555Z 18017KT 28/16 A2983 RMK A01 T02800161  RH  048%=      5-min Rain = 0
KHE1 241556Z 19020KT 28/16 A2983 RMK A01 T02790159  RH  048%=      5-min Rain = 0
KHE1 241557Z 18016KT 28/16 A2983 RMK A01 T02790161  RH  049%=      5-min Rain = 0
KHE1 241558Z 18016KT 28/16 A2983 RMK A01 T02790161  RH  049%=      5-min Rain = 0
KHE1 241559Z 18017KT 28/16 A2983 RMK A01 T02800162  RH  049%=      5-min Rain = 0
KHE1 241600Z 18021KT 28/16 A2983 RMK A01 T02800162  RH  049%=      5-min Rain = 0
KHE1 241601Z 18020KT 28/16 A2983 RMK A01 T02800162  RH  049%=      5-min Rain = 0
KHE1 241602Z 18020KT 28/16 A2983 RMK A01 T02800161  RH  048%=      5-min Rain = 0
KHE1 241603Z 18019KT 28/16 A2983 RMK A01 T02800161  RH  049%=      5-min Rain = 0
KHE1 241604Z 17017KT 28/16 A2983 RMK A01 T02810163  RH  049%=      5-min Rain = 0
KHE1 241605Z 18016KT 28/17 A2983 RMK A01 T02840165  RH  048%=      5-min Rain = 0
KHE1 241606Z 18016KT 29/16 A2983 RMK A01 T02860163  RH  047%=      5-min Rain = 0
KHE1 241607Z 18017KT 29/16 A2982 RMK A01 T02860162  RH  047%=      5-min Rain = 0
KHE1 241608Z 18014G19KT 28/16 A2982 RMK A01 T02830161  RH  047%=      5-min Rain = 0
KHE1 241609Z 18015KT 28/16 A2982 RMK A01 T02840164  RH  048%=      5-min Rain = 0
KHE1 241610Z 18015G20KT 29/16 A2982 RMK A01 T02850162  RH  047%=      5-min Rain = 0
KHE1 241611Z 18016G21KT 29/16 A2982 RMK A01 T02860162  RH  047%=      5-min Rain = 0
KHE1 241612Z 17017G22KT 29/16 A2982 RMK A01 T02860162  RH  047%=      5-min Rain = 0
KHE1 241613Z 17017KT 29/16 A2982 RMK A01 T02870160  RH  046%=      5-min Rain = 0
KHE1 241614Z 17013KT 29/17 A2982 RMK A01 T02860165  RH  048%=      5-min Rain = 0
KHE1 241615Z 17013KT 29/17 A2982 RMK A01 T02890166  RH  047%=      5-min Rain = 0
KHE1 241616Z 19014KT 29/17 A2982 RMK A01 T02910167  RH  047%=      5-min Rain = 0
KHE1 241617Z 18016KT 29/17 A2982 RMK A01 T02910166  RH  047%=      5-min Rain = 0
KHE1 241618Z 19013G18KT 29/17 A2982 RMK A01 T02890165  RH  047%=      5-min Rain = 0
KHE1 241619Z 19014KT 29/17 A2982 RMK A01 T02880165  RH  047%=      5-min Rain = 0
KHE1 241620Z 18011KT 29/17 A2982 RMK A01 T02870167  RH  048%=      5-min Rain = 0
KHE1 241621Z 17014KT 29/17 A2982 RMK A01 T02900171  RH  049%=      5-min Rain = 0
KHE1 241622Z 18015KT 29/17 A2982 RMK A01 T02940169  RH  047%=      5-min Rain = 0
KHE1 241623Z 19021G26KT 29/16 A2982 RMK A01 T02940163  RH  045%=      5-min Rain = 0
KHE1 241624Z 19021KT 29/16 A2982 RMK A01 T02890161  RH  046%=      5-min Rain = 0
KHE1 241625Z 18020KT 29/16 A2982 RMK A01 T02870164  RH  047%=      5-min Rain = 0
KHE1 241626Z 18017G25KT 29/17 A2982 RMK A01 T02880166  RH  048%=      5-min Rain = 0
KHE1 241627Z 18019G25KT 29/17 A2982 RMK A01 T02890167  RH  048%=      5-min Rain = 0
KHE1 241628Z 19020G25KT 29/17 A2982 RMK A01 T02890165  RH  047%=      5-min Rain = 0
KHE1 241629Z 19020KT 29/17 A2982 RMK A01 T02880165  RH  048%=      5-min Rain = 0
KHE1 241630Z 18019G24KT 29/17 A2982 RMK A01 T02870166  RH  048%=      5-min Rain = 0
KHE1 241631Z 19018KT 29/17 A2982 RMK A01 T02880165  RH  048%=      5-min Rain = 0
KHE1 241632Z 19017G23KT 29/17 A2982 RMK A01 T02880166  RH  047%=      5-min Rain = 0
KHE1 241633Z 19017G22KT 29/17 A2982 RMK A01 T02880166  RH  047%=      5-min Rain = 0
KHE1 241634Z 19017KT 29/17 A2982 RMK A01 T02890168  RH  048%=      5-min Rain = 0
KHE1 241635Z 18018KT 29/17 A2982 RMK A01 T02890169  RH  048%=      5-min Rain = 0
KHE1 241636Z 18020KT 29/17 A2982 RMK A01 T02900167  RH  047%=      5-min Rain = 0
KHE1 241637Z 18019G24KT 29/17 A2982 RMK A01 T02890167  RH  048%=      5-min Rain = 0
KHE1 241638Z 17014G20KT 29/17 A2982 RMK A01 T02890170  RH  049%=      5-min Rain = 0
KHE1 241639Z 17016KT 29/17 A2982 RMK A01 T02930169  RH  047%=      5-min Rain = 0
KHE1 241640Z 17016G22KT 30/17 A2982 RMK A01 T02950170  RH  047%=      5-min Rain = 0
KHE1 241641Z 17020KT 30/17 A2982 RMK A01 T02960168  RH  046%=      5-min Rain = 0
KHE1 241642Z 18016KT 29/17 A2982 RMK A01 T02940170  RH  047%=      5-min Rain = 0
KHE1 241643Z 19019KT 29/17 A2982 RMK A01 T02940170  RH  047%=      5-min Rain = 0
KHE1 241644Z 19018KT 29/17 A2982 RMK A01 T02920169  RH  047%=      5-min Rain = 0
KHE1 241645Z 19020KT 29/17 A2982 RMK A01 T02890169  RH  048%=      5-min Rain = 0
KHE1 241646Z 18021KT 29/17 A2982 RMK A01 T02880169  RH  048%=      5-min Rain = 0
KHE1 241647Z 17018KT 29/17 A2982 RMK A01 T02870168  RH  048%=      5-min Rain = 0
KHE1 241648Z 17019KT 29/17 A2982 RMK A01 T02870167  RH  048%=      5-min Rain = 0
KHE1 241649Z 18018KT 29/17 A2982 RMK A01 T02880169  RH  049%=      5-min Rain = 0
KHE1 241650Z 16015KT 29/17 A2982 RMK A01 T02900172  RH  049%=      5-min Rain = 0
KHE1 241651Z 17016KT 29/17 A2982 RMK A01 T02940171  RH  048%=      5-min Rain = 0
KHE1 241652Z 18017G22KT 30/17 A2982 RMK A01 T02960171  RH  047%=      5-min Rain = 0
KHE1 241653Z 19016KT 30/17 A2982 RMK A01 T02950171  RH  047%=      5-min Rain = 0
KHE1 241654Z 19014G20KT 29/17 A2982 RMK A01 T02940171  RH  047%=      5-min Rain = 0
KHE1 241655Z 19015G20KT 29/17 A2982 RMK A01 T02940169  RH  047%=      5-min Rain = 0
KHE1 241656Z 19020G27KT 29/17 A2982 RMK A01 T02930168  RH  047%=      5-min Rain = 0
KHE1 241657Z 18017KT 29/17 A2983 RMK A01 T02920168  RH  047%=      5-min Rain = 0
KHE1 241658Z 19019G24KT 29/17 A2983 RMK A01 T02930166  RH  046%=      5-min Rain = 0
KHE1 241659Z 18021KT 29/16 A2983 RMK A01 T02930163  RH  045%=      5-min Rain = 0
KHE1 241700Z 19015G20KT 29/17 A2983 RMK A01 T02910166  RH  047%=      5-min Rain = 0
KHE1 241701Z 19018KT 29/17 A2983 RMK A01 T02920166  RH  047%=      5-min Rain = 0
KHE1 241702Z 19018KT 29/17 A2983 RMK A01 T02920166  RH  046%=      5-min Rain = 0
KHE1 241703Z 18014G19KT 29/17 A2983 RMK A01 T02930169  RH  047%=      5-min Rain = 0
KHE1 241704Z 19017KT 30/17 A2983 RMK A01 T02960169  RH  047%=      5-min Rain = 0
KHE1 241705Z 20015G21KT 30/17 A2983 RMK A01 T02960171  RH  047%=      5-min Rain = 0
KHE1 241706Z 19019KT 30/17 A2983 RMK A01 T02960167  RH  046%=      5-min Rain = 0
KHE1 241707Z 19019KT 29/17 A2983 RMK A01 T02930165  RH  046%=      5-min Rain = 0
KHE1 241708Z 19018KT 29/17 A2983 RMK A01 T02910169  RH  048%=      5-min Rain = 0
KHE1 241709Z 19016G21KT 29/17 A2983 RMK A01 T02900171  RH  048%=      5-min Rain = 0
KHE1 241710Z 19017KT 29/17 A2983 RMK A01 T02920173  RH  049%=      5-min Rain = 0
KHE1 241711Z 19017G22KT 29/17 A2983 RMK A01 T02940170  RH  047%=      5-min Rain = 0
KHE1 241712Z 19017G22KT 29/17 A2983 RMK A01 T02930171  RH  048%=      5-min Rain = 0
KHE1 241713Z 20017KT 29/17 A2983 RMK A01 T02930172  RH  048%=      5-min Rain = 0
KHE1 241714Z 19014G19KT 29/17 A2983 RMK A01 T02940171  RH  048%=      5-min Rain = 0
KHE1 241715Z 18017KT 30/17 A2983 RMK A01 T02950174  RH  048%=      5-min Rain = 0
KHE1 241716Z 18014G19KT 30/17 A2983 RMK A01 T02950174  RH  048%=      5-min Rain = 0
KHE1 241717Z 17014KT 30/17 A2983 RMK A01 T02950174  RH  048%=      5-min Rain = 0
KHE1 241718Z 19014KT 30/18 A2983 RMK A01 T02960176  RH  048%=      5-min Rain = 0
KHE1 241719Z 19014KT 30/18 A2983 RMK A01 T02980175  RH  048%=      5-min Rain = 0
KHE1 241720Z 18013KT 30/18 A2983 RMK A01 T02980176  RH  048%=      5-min Rain = 0
KHE1 241721Z 19014G19KT 30/18 A2983 RMK A01 T02990177  RH  048%=      5-min Rain = 0
KHE1 241722Z 18014KT 30/18 A2983 RMK A01 T03010176  RH  047%=      5-min Rain = 0
KHE1 241723Z 19013KT 30/18 A2982 RMK A01 T03020175  RH  047%=      5-min Rain = 0
KHE1 241724Z 19016KT 30/18 A2982 RMK A01 T03010176  RH  047%=      5-min Rain = 0
KHE1 241725Z 18018KT 30/17 A2982 RMK A01 T02990172  RH  046%=      5-min Rain = 0
KHE1 241726Z 18017KT 30/17 A2982 RMK A01 T02960172  RH  047%=      5-min Rain = 0
KHE1 241727Z 16017KT 30/17 A2982 RMK A01 T02950169  RH  047%=      5-min Rain = 0
KHE1 241728Z 18018KT 30/17 A2982 RMK A01 T02970171  RH  047%=      5-min Rain = 0
KHE1 241729Z 18014KT 30/17 A2982 RMK A01 T02970173  RH  047%=      5-min Rain = 0
KHE1 241730Z 17016G22KT 30/17 A2982 RMK A01 T02990174  RH  047%=      5-min Rain = 0
KHE1 241731Z 17015G20KT 30/17 A2982 RMK A01 T03000174  RH  047%=      5-min Rain = 0
KHE1 241732Z 17016KT 30/17 A2982 RMK A01 T03000172  RH  046%=      5-min Rain = 0
KHE1 241733Z 18015KT 30/17 A2982 RMK A01 T03010172  RH  046%=      5-min Rain = 0
KHE1 241734Z 17018G23KT 30/17 A2982 RMK A01 T03000174  RH  047%=      5-min Rain = 0
KHE1 241735Z 17017KT 30/18 A2982 RMK A01 T03000175  RH  047%=      5-min Rain = 0
KHE1 241736Z 17017KT 30/18 A2982 RMK A01 T03000175  RH  047%=      5-min Rain = 0
KHE1 241737Z 17018KT 30/18 A2982 RMK A01 T03000175  RH  047%=      5-min Rain = 0
KHE1 241738Z 17017KT 30/17 A2982 RMK A01 T02980174  RH  047%=      5-min Rain = 0
KHE1 241739Z 18017KT 30/17 A2982 RMK A01 T02970171  RH  047%=      5-min Rain = 0
KHE1 241740Z 18014KT 30/17 A2982 RMK A01 T02970170  RH  046%=      5-min Rain = 0
KHE1 241741Z 19016KT 30/17 A2982 RMK A01 T03020173  RH  046%=      5-min Rain = 0
KHE1 241742Z 18017KT 30/17 A2982 RMK A01 T03020170  RH  045%=      5-min Rain = 0
KHE1 241743Z 18015KT 30/17 A2982 RMK A01 T03000172  RH  046%=      5-min Rain = 0
KHE1 241744Z 17017KT 30/17 A2982 RMK A01 T03010174  RH  047%=      5-min Rain = 0
KHE1 241745Z 18015KT 30/18 A2982 RMK A01 T03020176  RH  047%=      5-min Rain = 0
KHE1 241746Z 18014KT 30/18 A2982 RMK A01 T03020176  RH  047%=      5-min Rain = 0
KHE1 241747Z 17017KT 31/18 A2982 RMK A01 T03050176  RH  046%=      5-min Rain = 0
KHE1 241748Z 17012G17KT 31/18 A2982 RMK A01 T03050177  RH  046%=      5-min Rain = 0
KHE1 241749Z 17015G25KT 31/18 A2982 RMK A01 T03080175  RH  045%=      5-min Rain = 0
KHE1 241750Z 17020KT 31/17 A2982 RMK A01 T03080170  RH  044%=      5-min Rain = 0
KHE1 241751Z 17016G23KT 30/17 A2982 RMK A01 T03040170  RH  045%=      5-min Rain = 0
KHE1 241752Z 18016KT 30/17 A2982 RMK A01 T03020171  RH  046%=      5-min Rain = 0
KHE1 241753Z 19016KT 30/17 A2981 RMK A01 T02990172  RH  046%=      5-min Rain = 0
KHE1 241754Z 19016KT 30/17 A2981 RMK A01 T02990173  RH  047%=      5-min Rain = 0
KHE1 241755Z 17015G20KT 30/18 A2981 RMK A01 T03010176  RH  047%=      5-min Rain = 0
KHE1 241756Z 18014KT 31/18 A2981 RMK A01 T03060176  RH  046%=      5-min Rain = 0
KHE1 241757Z 17015KT 31/17 A2981 RMK A01 T03080174  RH  044%=      5-min Rain = 0
KHE1 241758Z 17015KT 31/17 A2981 RMK A01 T03060172  RH  045%=      5-min Rain = 0
KHE1 241759Z 19016KT 31/17 A2981 RMK A01 T03060173  RH  045%=      5-min Rain = 0
KHE1 241800Z 19017G23KT 31/17 A2981 RMK A01 T03070174  RH  045%=      5-min Rain = 0
KHE1 241801Z 19018KT 31/17 A2981 RMK A01 T03060170  RH  044%=      5-min Rain = 0
KHE1 241802Z 19017KT 30/17 A2981 RMK A01 T03020170  RH  045%=      5-min Rain = 0
KHE1 241803Z 19017KT 30/17 A2981 RMK A01 T03010169  RH  045%=      5-min Rain = 0
KHE1 241804Z 18016G21KT 30/17 A2981 RMK A01 T03000172  RH  046%=      5-min Rain = 0
KHE1 241805Z 16017KT 30/18 A2981 RMK A01 T03040175  RH  046%=      5-min Rain = 0
KHE1 241806Z 18017KT 31/18 A2981 RMK A01 T03080175  RH  045%=      5-min Rain = 0
KHE1 241807Z 19016KT 31/17 A2981 RMK A01 T03080172  RH  044%=      5-min Rain = 0
KHE1 241808Z 18017KT 31/17 A2981 RMK A01 T03060173  RH  045%=      5-min Rain = 0
KHE1 241809Z 16017KT 31/17 A2981 RMK A01 T03050174  RH  045%=      5-min Rain = 0
KHE1 241810Z 17018G23KT 31/18 A298 RMK A01 T03050175  RH  046%=      5-min Rain = 0
KHE1 241811Z 18016KT 31/17 A2981 RMK A01 T03070174  RH  045%=      5-min Rain = 0
KHE1 241812Z 18019KT 31/17 A2981 RMK A01 T03050174  RH  045%=      5-min Rain = 0
KHE1 241813Z 19014G21KT 31/18 A2981 RMK A01 T03050176  RH  046%=      5-min Rain = 0
KHE1 241814Z 19017KT 31/18 A298 RMK A01 T03070175  RH  045%=      5-min Rain = 0
KHE1 241815Z 19017KT 31/18 A298 RMK A01 T03060176  RH  046%=      5-min Rain = 0
KHE1 241816Z 19017KT 31/18 A298 RMK A01 T03050176  RH  046%=      5-min Rain = 0
KHE1 241817Z 19017G22KT 30/18 A298 RMK A01 T03040176  RH  046%=      5-min Rain = 0
KHE1 241818Z 18018KT 30/17 A298 RMK A01 T03030174  RH  046%=      5-min Rain = 0
KHE1 241819Z 19021G26KT 30/17 A298 RMK A01 T03040173  RH  045%=      5-min Rain = 0
KHE1 241820Z 19021KT 31/17 A298 RMK A01 T03050171  RH  045%=      5-min Rain = 0
KHE1 241821Z 19016KT 30/17 A298 RMK A01 T03030172  RH  045%=      5-min Rain = 0
KHE1 241822Z 18016KT 31/17 A298 RMK A01 T03060174  RH  045%=      5-min Rain = 0
KHE1 241823Z 18019KT 31/17 A298 RMK A01 T03070173  RH  045%=      5-min Rain = 0
KHE1 241824Z 18018KT 31/17 A298 RMK A01 T03070173  RH  045%=      5-min Rain = 0
KHE1 241825Z 17016KT 31/18 A298 RMK A01 T03060175  RH  045%=      5-min Rain = 0
KHE1 241826Z 18016G22KT 31/18 A298 RMK A01 T03060176  RH  046%=      5-min Rain = 0
KHE1 241827Z 19016G21KT 31/18 A298 RMK A01 T03080177  RH  045%=      5-min Rain = 0
KHE1 241828Z 19017G22KT 31/18 A298 RMK A01 T03080178  RH  046%=      5-min Rain = 0
KHE1 241829Z 18013G18KT 31/18 A298 RMK A01 T03100177  RH  045%=      5-min Rain = 0
KHE1 241830Z 17020KT 31/17 A298 RMK A01 T03130174  RH  044%=      5-min Rain = 0
KHE1 241831Z 18018KT 32/17 A298 RMK A01 T03150174  RH  043%=      5-min Rain = 0
KHE1 241832Z 18016G23KT 31/18 A298 RMK A01 T03140176  RH  044%=      5-min Rain = 0
KHE1 241833Z 19020KT 31/17 A2979 RMK A01 T03140174  RH  043%=      5-min Rain = 0
KHE1 241834Z 19021KT 31/17 A2979 RMK A01 T03090173  RH  044%=      5-min Rain = 0
KHE1 241835Z 19019KT 31/17 A2979 RMK A01 T03070171  RH  044%=      5-min Rain = 0
KHE1 241836Z 19018KT 31/17 A2979 RMK A01 T03050171  RH  045%=      5-min Rain = 0
KHE1 241837Z 19017G22KT 31/17 A2979 RMK A01 T03050173  RH  045%=      5-min Rain = 0
KHE1 241838Z 18017G23KT 31/18 A2979 RMK A01 T03060176  RH  046%=      5-min Rain = 0
KHE1 241839Z 17015KT 31/18 A2979 RMK A01 T03110178  RH  045%=      5-min Rain = 0
KHE1 241840Z 17014KT 31/18 A2979 RMK A01 T03140178  RH  044%=      5-min Rain = 0
KHE1 241841Z 16017KT 32/18 A2979 RMK A01 T03160175  RH  043%=      5-min Rain = 0
KHE1 241842Z 17015KT 32/18 A2979 RMK A01 T03150175  RH  043%=      5-min Rain = 0
KHE1 241843Z 17018G23KT 32/18 A2979 RMK A01 T03150175  RH  043%=      5-min Rain = 0
KHE1 241844Z 17015KT 32/18 A2979 RMK A01 T03150176  RH  044%=      5-min Rain = 0
KHE1 241845Z 17018KT 32/18 A2979 RMK A01 T03150176  RH  044%=      5-min Rain = 0
KHE1 241846Z 18016KT 31/18 A2978 RMK A01 T03120176  RH  044%=      5-min Rain = 0
KHE1 241847Z 17014G21KT 31/18 A2978 RMK A01 T03130176  RH  044%=      5-min Rain = 0
KHE1 241848Z 18017KT 32/18 A2978 RMK A01 T03150176  RH  043%=      5-min Rain = 0
KHE1 241849Z 18019G24KT 32/18 A2978 RMK A01 T03150177  RH  044%=      5-min Rain = 0
KHE1 241850Z 18015G21KT 31/18 A2978 RMK A01 T03120179  RH  045%=      5-min Rain = 0
KHE1 241851Z 17018KT 31/18 A2978 RMK A01 T03130178  RH  045%=      5-min Rain = 0
KHE1 241852Z 17015KT 31/18 A2978 RMK A01 T03120178  RH  045%=      5-min Rain = 0
KHE1 241853Z 17015G22KT 31/18 A2978 RMK A01 T03120177  RH  045%=      5-min Rain = 0
KHE1 241854Z 17016G22KT 31/18 A2978 RMK A01 T03120178  RH  045%=      5-min Rain = 0
KHE1 241855Z 19017KT 31/18 A2978 RMK A01 T03140178  RH  044%=      5-min Rain = 0
KHE1 241856Z 18017KT 31/18 A2978 RMK A01 T03120177  RH  045%=      5-min Rain = 0
KHE1 241857Z 17016G22KT 31/18 A2977 RMK A01 T03110178  RH  045%=      5-min Rain = 0
KHE1 241858Z 16016G22KT 31/18 A2977 RMK A01 T03130178  RH  044%=      5-min Rain = 0
KHE1 241859Z 17015KT 32/18 A2977 RMK A01 T03160177  RH  044%=      5-min Rain = 0
KHE1 241900Z 18013G18KT 32/18 A2977 RMK A01 T03160179  RH  044%=      5-min Rain = 0
KHE1 241901Z 19017KT 32/18 A2977 RMK A01 T03180179  RH  043%=      5-min Rain = 0
KHE1 241902Z 19013KT 32/18 A2977 RMK A01 T03200179  RH  043%=      5-min Rain = 0
KHE1 241903Z 18016G21KT 32/18 A2977 RMK A01 T03190179  RH  043%=      5-min Rain = 0
KHE1 241904Z 19013G18KT 32/18 A2977 RMK A01 T03160178  RH  044%=      5-min Rain = 0
KHE1 241905Z 19015KT 31/18 A2977 RMK A01 T03140178  RH  044%=      5-min Rain = 0
KHE1 241906Z 20019KT 32/18 A2977 RMK A01 T03170178  RH  044%=      5-min Rain = 0
KHE1 241907Z 19018KT 32/18 A2977 RMK A01 T03180177  RH  043%=      5-min Rain = 0
KHE1 241908Z 18016KT 32/18 A2977 RMK A01 T03180178  RH  043%=      5-min Rain = 0
KHE1 241909Z 17011G18KT 32/18 A2977 RMK A01 T03190178  RH  043%=      5-min Rain = 0
KHE1 241910Z 16015KT 32/18 A2977 RMK A01 T03190176  RH  043%=      5-min Rain = 0
KHE1 241911Z 16013KT 32/18 A2977 RMK A01 T03210179  RH  043%=      5-min Rain = 0
KHE1 241912Z 16014G19KT 32/18 A2976 RMK A01 T03230178  RH  042%=      5-min Rain = 0
KHE1 241913Z 18011KT 32/18 A2976 RMK A01 T03220181  RH  043%=      5-min Rain = 0
KHE1 241914Z 16016G21KT 32/18 A2976 RMK A01 T03220179  RH  043%=      5-min Rain = 0
KHE1 241915Z 15016KT 32/18 A2976 RMK A01 T03220176  RH  042%=      5-min Rain = 0
KHE1 241916Z 17018KT 32/18 A2976 RMK A01 T03230177  RH  042%=      5-min Rain = 0
KHE1 241917Z 17020KT 32/18 A2976 RMK A01 T03230175  RH  041%=      5-min Rain = 0
KHE1 241918Z 18018G24KT 32/18 A2976 RMK A01 T03200177  RH  043%=      5-min Rain = 0
KHE1 241919Z 19019G24KT 32/18 A2976 RMK A01 T03200177  RH  042%=      5-min Rain = 0
KHE1 241920Z 17018KT 32/18 A2976 RMK A01 T03160175  RH  043%=      5-min Rain = 0
KHE1 241921Z 18015KT 32/18 A2976 RMK A01 T03170177  RH  043%=      5-min Rain = 0
KHE1 241922Z 18013KT 32/18 A2976 RMK A01 T03180176  RH  043%=      5-min Rain = 0
KHE1 241923Z 18013KT 32/18 A2976 RMK A01 T03180179  RH  044%=      5-min Rain = 0
KHE1 241924Z 19013KT 32/18 A2976 RMK A01 T03220181  RH  043%=      5-min Rain = 0
KHE1 241925Z 19016KT 32/18 A2976 RMK A01 T03220180  RH  043%=      5-min Rain = 0
KHE1 241926Z 19015KT 32/18 A2976 RMK A01 T03190179  RH  043%=      5-min Rain = 0
KHE1 241927Z 18015G20KT 32/18 A2976 RMK A01 T03180180  RH  044%=      5-min Rain = 0
KHE1 241928Z 18019G24KT 32/18 A2975 RMK A01 T03220177  RH  042%=      5-min Rain = 0
KHE1 241929Z 16017KT 32/18 A2975 RMK A01 T03230177  RH  042%=      5-min Rain = 0
KHE1 241930Z 17016KT 33/18 A2975 RMK A01 T03250179  RH  042%=      5-min Rain = 0
KHE1 241931Z 18016KT 33/18 A2975 RMK A01 T03260178  RH  041%=      5-min Rain = 0
KHE1 241932Z 17014G20KT 33/18 A2975 RMK A01 T03250178  RH  042%=      5-min Rain = 0
KHE1 241933Z 18015KT 32/18 A2975 RMK A01 T03240175  RH  041%=      5-min Rain = 0
KHE1 241934Z 17015G20KT 32/18 A2975 RMK A01 T03230178  RH  042%=      5-min Rain = 0
KHE1 241935Z 16017G22KT 32/18 A2975 RMK A01 T03230176  RH  042%=      5-min Rain = 0
KHE1 241936Z 16016KT 32/18 A2975 RMK A01 T03240177  RH  041%=      5-min Rain = 0
KHE1 241937Z 16021KT 33/17 A2975 RMK A01 T03250174  RH  041%=      5-min Rain = 0
KHE1 241938Z 17016G21KT 32/18 A2975 RMK A01 T03230175  RH  041%=      5-min Rain = 0
KHE1 241939Z 17016G21KT 32/18 A2975 RMK A01 T03220176  RH  042%=      5-min Rain = 0
KHE1 241940Z 17018G23KT 32/18 A2974 RMK A01 T03220177  RH  042%=      5-min Rain = 0
KHE1 241941Z 19013G19KT 33/18 A2975 RMK A01 T03260180  RH  042%=      5-min Rain = 0
KHE1 241942Z 19015G21KT 33/18 A2974 RMK A01 T03290181  RH  041%=      5-min Rain = 0
KHE1 241943Z 19014KT 33/18 A2974 RMK A01 T03290179  RH  041%=      5-min Rain = 0
KHE1 241944Z 19015KT 33/18 A2974 RMK A01 T03260178  RH  041%=      5-min Rain = 0
KHE1 241945Z 18013KT 32/18 A2974 RMK A01 T03230177  RH  042%=      5-min Rain = 0
KHE1 241946Z 16014KT 32/18 A2974 RMK A01 T03230178  RH  042%=      5-min Rain = 0
KHE1 241947Z 17016G23KT 33/18 A2974 RMK A01 T03270179  RH  041%=      5-min Rain = 0
KHE1 241948Z 17019KT 33/18 A2974 RMK A01 T03290179  RH  041%=      5-min Rain = 0
KHE1 241949Z 17021KT 33/17 A2974 RMK A01 T03280174  RH  040%=      5-min Rain = 0
KHE1 241950Z 17018KT 33/18 A2974 RMK A01 T03250176  RH  041%=      5-min Rain = 0
KHE1 241951Z 18018KT 32/18 A2974 RMK A01 T03240176  RH  041%=      5-min Rain = 0
KHE1 241952Z 16015KT 32/18 A2974 RMK A01 T03230178  RH  042%=      5-min Rain = 0
KHE1 241953Z 18015KT 33/18 A2974 RMK A01 T03250178  RH  042%=      5-min Rain = 0
KHE1 241954Z 18016KT 32/18 A2974 RMK A01 T03240175  RH  041%=      5-min Rain = 0
KHE1 241955Z 17015KT 32/18 A2974 RMK A01 T03220176  RH  042%=      5-min Rain = 0
KHE1 241956Z 17016G22KT 32/18 A2974 RMK A01 T03240179  RH  042%=      5-min Rain = 0
KHE1 241957Z 17017KT 33/18 A2974 RMK A01 T03290181  RH  042%=      5-min Rain = 0
KHE1 241958Z 16017G22KT 33/18 A2974 RMK A01 T03310179  RH  040%=      5-min Rain = 0
KHE1 241959Z 17015KT 33/17 A2974 RMK A01 T03300174  RH  040%=      5-min Rain = 0
KHE1 242000Z 18014G19KT 33/18 A2974 RMK A01 T03270177  RH  041%=      5-min Rain = 0
KHE1 242001Z 18019KT 33/18 A2974 RMK A01 T03270176  RH  041%=      5-min Rain = 0
KHE1 242002Z 17018KT 33/17 A2974 RMK A01 T03250174  RH  041%=      5-min Rain = 0
KHE1 242003Z 16017KT 32/18 A2974 RMK A01 T03240176  RH  041%=      5-min Rain = 0
KHE1 242004Z 16016KT 33/18 A2974 RMK A01 T03250176  RH  041%=      5-min Rain = 0
KHE1 242005Z 16017KT 32/18 A2974 RMK A01 T03240176  RH  042%=      5-min Rain = 0
KHE1 242006Z 16013KT 32/18 A2974 RMK A01 T03220179  RH  042%=      5-min Rain = 0
KHE1 242007Z 17013KT 33/18 A2974 RMK A01 T03250181  RH  043%=      5-min Rain = 0
KHE1 242008Z 18011KT 33/18 A2974 RMK A01 T03280182  RH  042%=      5-min Rain = 0
KHE1 242009Z 18011KT 33/18 A2974 RMK A01 T03290180  RH  041%=      5-min Rain = 0
KHE1 242010Z 19014G20KT 33/18 A2974 RMK A01 T03270180  RH  042%=      5-min Rain = 0
KHE1 242011Z 19013KT 33/18 A2974 RMK A01 T03270177  RH  041%=      5-min Rain = 0
KHE1 242012Z 18013KT 33/18 A2974 RMK A01 T03260178  RH  041%=      5-min Rain = 0
KHE1 242013Z 18017G22KT 33/18 A2974 RMK A01 T03300176  RH  040%=      5-min Rain = 0
KHE1 242014Z 19013G20KT 33/18 A2974 RMK A01 T03310176  RH  040%=      5-min Rain = 0
KHE1 242015Z 18012KT 33/18 A2974 RMK A01 T03310176  RH  040%=      5-min Rain = 0
KHE1 242016Z 18008KT 33/18 A2974 RMK A01 T03310176  RH  040%=      5-min Rain = 0
KHE1 242017Z 19011KT 33/18 A2974 RMK A01 T03320180  RH  041%=      5-min Rain = 0
KHE1 242018Z 20014G19KT 34/18 A2974 RMK A01 T03370177  RH  039%=      5-min Rain = 0
KHE1 242019Z 18016G21KT 34/18 A2974 RMK A01 T03370177  RH  039%=      5-min Rain = 0
KHE1 242020Z 17017G22KT 34/18 A2974 RMK A01 T03350176  RH  039%=      5-min Rain = 0
KHE1 242021Z 17015KT 33/17 A2974 RMK A01 T03310174  RH  039%=      5-min Rain = 0
KHE1 242022Z 16013KT 33/17 A2974 RMK A01 T03270174  RH  040%=      5-min Rain = 0
KHE1 242023Z 18013G18KT 32/17 A2973 RMK A01 T03240174  RH  041%=      5-min Rain = 0
KHE1 242024Z 19014KT 32/18 A2973 RMK A01 T03240177  RH  042%=      5-min Rain = 0
KHE1 242025Z 17014G19KT 33/18 A2973 RMK A01 T03250178  RH  042%=      5-min Rain = 0
KHE1 242026Z 18012G17KT 33/18 A2973 RMK A01 T03280179  RH  041%=      5-min Rain = 0
KHE1 242027Z 20014KT 33/18 A2973 RMK A01 T03310177  RH  040%=      5-min Rain = 0
KHE1 242028Z 20012KT 33/17 A2973 RMK A01 T03320172  RH  039%=      5-min Rain = 0
KHE1 242029Z 19014G20KT 33/17 A2973 RMK A01 T03300174  RH  039%=      5-min Rain = 0
KHE1 242030Z 19018KT 33/17 A2973 RMK A01 T03310172  RH  039%=      5-min Rain = 0
KHE1 242031Z 18015G21KT 33/18 A2973 RMK A01 T03310175  RH  039%=      5-min Rain = 0
KHE1 242032Z 18015G20KT 33/17 A2973 RMK A01 T03330172  RH  038%=      5-min Rain = 0
KHE1 242033Z 19012G18KT 33/17 A2973 RMK A01 T03320173  RH  039%=      5-min Rain = 0
KHE1 242034Z 19017KT 33/17 A2973 RMK A01 T03330170  RH  038%=      5-min Rain = 0
KHE1 242035Z 19016G21KT 33/17 A2973 RMK A01 T03330169  RH  037%=      5-min Rain = 0
KHE1 242036Z 19013KT 33/17 A2973 RMK A01 T03310170  RH  038%=      5-min Rain = 0
KHE1 242037Z 18016KT 33/17 A2973 RMK A01 T03320170  RH  038%=      5-min Rain = 0
KHE1 242038Z 18017G22KT 33/17 A2973 RMK A01 T03320171  RH  038%=      5-min Rain = 0
KHE1 242039Z 17015KT 33/17 A2973 RMK A01 T03300172  RH  039%=      5-min Rain = 0
KHE1 242040Z 17014G19KT 33/17 A2973 RMK A01 T03300170  RH  039%=      5-min Rain = 0
KHE1 242041Z 18014KT 33/17 A2973 RMK A01 T03300171  RH  039%=      5-min Rain = 0
KHE1 242042Z 19015G20KT 33/17 A2973 RMK A01 T03290174  RH  040%=      5-min Rain = 0
KHE1 242043Z 19014G20KT 33/17 A2973 RMK A01 T03290172  RH  039%=      5-min Rain = 0
KHE1 242044Z 18015KT 33/17 A2973 RMK A01 T03260169  RH  039%=      5-min Rain = 0
KHE1 242045Z 18012G17KT 33/17 A2973 RMK A01 T03250172  RH  040%=      5-min Rain = 0
KHE1 242046Z 18014G21KT 33/17 A2972 RMK A01 T03300174  RH  039%=      5-min Rain = 0
KHE1 242047Z 19016KT 33/17 A2972 RMK A01 T03340171  RH  038%=      5-min Rain = 0
KHE1 242048Z 19016KT 33/17 A2972 RMK A01 T03340169  RH  037%=      5-min Rain = 0
KHE1 242049Z 19015G23KT 33/17 A2972 RMK A01 T03310171  RH  039%=      5-min Rain = 0
KHE1 242050Z 18016KT 33/17 A2972 RMK A01 T03310171  RH  038%=      5-min Rain = 0
KHE1 242051Z 19017KT 33/17 A2972 RMK A01 T03310171  RH  038%=      5-min Rain = 0
KHE1 242052Z 18014KT 33/17 A2972 RMK A01 T03280168  RH  038%=      5-min Rain = 0
KHE1 242053Z 18013KT 33/17 A2972 RMK A01 T03270169  RH  039%=      5-min Rain = 0
KHE1 242054Z 18013KT 33/17 A2972 RMK A01 T03290169  RH  038%=      5-min Rain = 0
KHE1 242055Z 18012KT 33/17 A2972 RMK A01 T03320166  RH  037%=      5-min Rain = 0
KHE1 242056Z 18012KT 33/17 A2972 RMK A01 T03300167  RH  038%=      5-min Rain = 0
KHE1 242057Z 20018KT 33/17 A2972 RMK A01 T03290168  RH  038%=      5-min Rain = 0
KHE1 242058Z 20017KT 33/17 A2972 RMK A01 T03320170  RH  038%=      5-min Rain = 0
KHE1 242059Z 19014KT 33/17 A2972 RMK A01 T03330170  RH  038%=      5-min Rain = 0
KHE1 242100Z 21015KT 33/17 A2972 RMK A01 T03310172  RH  039%=      5-min Rain = 0
KHE1 242101Z 20014KT 34/17 A2972 RMK A01 T03350171  RH  038%=      5-min Rain = 0
KHE1 242102Z 21017KT 34/17 A2972 RMK A01 T03350170  RH  037%=      5-min Rain = 0
KHE1 242103Z 21016KT 33/17 A2972 RMK A01 T03320170  RH  038%=      5-min Rain = 0
KHE1 242104Z 20015KT 33/17 A2972 RMK A01 T03310172  RH  039%=      5-min Rain = 0
KHE1 242105Z 20011KT 33/17 A2972 RMK A01 T03340173  RH  038%=      5-min Rain = 0
KHE1 242106Z 22010KT 34/17 A2972 RMK A01 T03350172  RH  038%=      5-min Rain = 0
KHE1 242107Z 21013KT 34/17 A2972 RMK A01 T03350174  RH  038%=      5-min Rain = 0
KHE1 242108Z 20015KT 34/17 A2972 RMK A01 T03370172  RH  038%=      5-min Rain = 0
KHE1 242109Z 20014KT 33/17 A2972 RMK A01 T03300170  RH  038%=      5-min Rain = 0
KHE1 242110Z 19014KT 33/17 A2972 RMK A01 T03260171  RH  040%=      5-min Rain = 0
KHE1 242111Z 17010KT 33/17 A2972 RMK A01 T03280174  RH  040%=      5-min Rain = 0
KHE1 242112Z 18013KT 33/18 A2972 RMK A01 T03310175  RH  039%=      5-min Rain = 0
KHE1 242113Z 18010KT 34/18 A2972 RMK A01 T03350176  RH  039%=      5-min Rain = 0
KHE1 242114Z 20010KT 34/18 A2972 RMK A01 T03370176  RH  038%=      5-min Rain = 0
KHE1 242115Z 19014KT 34/18 A2972 RMK A01 T03430177  RH  037%=      5-min Rain = 0
KHE1 242116Z 20015G21KT 34/18 A2972 RMK A01 T03420176  RH  037%=      5-min Rain = 0
KHE1 242117Z 18016KT 33/17 A2972 RMK A01 T03340171  RH  038%=      5-min Rain = 0
KHE1 242118Z 17014KT 33/17 A2972 RMK A01 T03260172  RH  040%=      5-min Rain = 0
KHE1 242119Z 16014KT 32/17 A2972 RMK A01 T03230171  RH  040%=      5-min Rain = 0
KHE1 242120Z 17012KT 32/17 A2972 RMK A01 T03210171  RH  041%=      5-min Rain = 0
KHE1 242121Z 17012KT 32/17 A2972 RMK A01 T03190172  RH  041%=      5-min Rain = 0
KHE1 242122Z 18012G17KT 32/17 A2972 RMK A01 T03200174  RH  042%=      5-min Rain = 0
KHE1 242123Z 18017KT 32/17 A2972 RMK A01 T03220170  RH  040%=      5-min Rain = 0
KHE1 242124Z 18010KT 32/17 A2972 RMK A01 T03210171  RH  041%=      5-min Rain = 0
KHE1 242125Z 20014G20KT 32/17 A2972 RMK A01 T03230173  RH  041%=      5-min Rain = 0
KHE1 242126Z 20015G20KT 33/17 A2972 RMK A01 T03290174  RH  040%=      5-min Rain = 0
KHE1 242127Z 20015KT 33/17 A2972 RMK A01 T03340172  RH  038%=      5-min Rain = 0
KHE1 242128Z 20015KT 33/17 A2972 RMK A01 T03340173  RH  038%=      5-min Rain = 0
KHE1 242129Z 19015KT 33/17 A2972 RMK A01 T03340173  RH  038%=      5-min Rain = 0
KHE1 242130Z 19011KT 33/17 A2972 RMK A01 T03320173  RH  039%=      5-min Rain = 0
KHE1 242131Z 18010KT 33/18 A2971 RMK A01 T03320175  RH  039%=      5-min Rain = 0
KHE1 242132Z 19010KT 34/17 A2971 RMK A01 T03350174  RH  038%=      5-min Rain = 0
KHE1 242133Z 21010KT 34/18 A2971 RMK A01 T03360175  RH  038%=      5-min Rain = 0
KHE1 242134Z 20013KT 34/17 A2971 RMK A01 T03360174  RH  038%=      5-min Rain = 0
KHE1 242135Z 20011G16KT 33/17 A2971 RMK A01 T03340174  RH  039%=      5-min Rain = 0
KHE1 242136Z 19012KT 33/18 A2971 RMK A01 T03330175  RH  039%=      5-min Rain = 0
KHE1 242137Z 19012KT 33/18 A2971 RMK A01 T03340175  RH  039%=      5-min Rain = 0
KHE1 242138Z 19014KT 33/17 A2971 RMK A01 T03340173  RH  038%=      5-min Rain = 0
KHE1 242139Z 18012KT 34/17 A2971 RMK A01 T03350171  RH  038%=      5-min Rain = 0
KHE1 242140Z 18011KT 34/17 A2971 RMK A01 T03350170  RH  037%=      5-min Rain = 0
KHE1 242141Z 18009KT 34/17 A2971 RMK A01 T03370173  RH  038%=      5-min Rain = 0
KHE1 242142Z 20012KT 34/17 A2971 RMK A01 T03410171  RH  037%=      5-min Rain = 0
KHE1 242143Z 19013G20KT 34/17 A297 RMK A01 T03410171  RH  037%=      5-min Rain = 0
KHE1 242144Z 19016KT 34/17 A297 RMK A01 T03350171  RH  037%=      5-min Rain = 0
KHE1 242145Z 19014KT 33/17 A297 RMK A01 T03330171  RH  038%=      5-min Rain = 0
KHE1 242146Z 19015KT 33/17 A297 RMK A01 T03330170  RH  038%=      5-min Rain = 0
KHE1 242147Z 18014KT 33/17 A297 RMK A01 T03340172  RH  038%=      5-min Rain = 0
KHE1 242148Z 18014KT 34/17 A297 RMK A01 T03360171  RH  037%=      5-min Rain = 0
KHE1 242149Z 18014KT 34/17 A297 RMK A01 T03350171  RH  038%=      5-min Rain = 0
KHE1 242150Z 18012KT 34/17 A297 RMK A01 T03350172  RH  038%=      5-min Rain = 0
KHE1 242151Z 19011KT 34/17 A297 RMK A01 T03350173  RH  038%=      5-min Rain = 0
KHE1 242152Z 18008KT 33/18 A297 RMK A01 T03340175  RH  039%=      5-min Rain = 0
KHE1 242153Z 19010KT 34/17 A297 RMK A01 T03350173  RH  038%=      5-min Rain = 0
KHE1 242154Z 18010KT 33/17 A297 RMK A01 T03340173  RH  038%=      5-min Rain = 0
KHE1 242155Z 17009KT 33/18 A297 RMK A01 T03340175  RH  039%=      5-min Rain = 0
KHE1 242156Z 19011KT 34/17 A297 RMK A01 T03360174  RH  038%=      5-min Rain = 0
KHE1 242157Z 20011KT 34/17 A297 RMK A01 T03360171  RH  038%=      5-min Rain = 0
KHE1 242158Z 18011KT 34/17 A297 RMK A01 T03370174  RH  038%=      5-min Rain = 0
KHE1 242159Z 18010KT 34/17 A2969 RMK A01 T03410173  RH  037%=      5-min Rain = 0
KHE1 242200Z 18009KT 34/17 A2969 RMK A01 T03420172  RH  037%=      5-min Rain = 0
KHE1 242201Z 20009KT 34/17 A2969 RMK A01 T03420172  RH  036%=      5-min Rain = 0
KHE1 242202Z 19010KT 34/17 A2969 RMK A01 T03400171  RH  037%=      5-min Rain = 0
KHE1 242203Z 19011KT 34/17 A2969 RMK A01 T03380170  RH  037%=      5-min Rain = 0
KHE1 242204Z 18011KT 34/17 A2969 RMK A01 T03350169  RH  037%=      5-min Rain = 0
KHE1 242205Z 19009KT 33/17 A2969 RMK A01 T03330168  RH  037%=      5-min Rain = 0
KHE1 242206Z 19011KT 33/17 A2969 RMK A01 T03340169  RH  037%=      5-min Rain = 0
KHE1 242207Z 19011KT 34/17 A2969 RMK A01 T03350168  RH  037%=      5-min Rain = 0
KHE1 242208Z 20011KT 34/17 A2969 RMK A01 T03350168  RH  037%=      5-min Rain = 0
KHE1 242209Z 18012G17KT 33/17 A2969 RMK A01 T03340169  RH  037%=      5-min Rain = 0
KHE1 242210Z 17012KT 33/17 A2969 RMK A01 T03310168  RH  038%=      5-min Rain = 0
KHE1 242211Z 17009KT 33/17 A2969 RMK A01 T03260165  RH  038%=      5-min Rain = 0
KHE1 242212Z 16011KT 32/17 A2968 RMK A01 T03240167  RH  039%=      5-min Rain = 0
KHE1 242213Z 17012KT 33/17 A2968 RMK A01 T03280170  RH  039%=      5-min Rain = 0
KHE1 242214Z 17010KT 33/17 A2968 RMK A01 T03300168  RH  038%=      5-min Rain = 0
KHE1 242215Z 18010KT 33/17 A2968 RMK A01 T03330168  RH  037%=      5-min Rain = 0
KHE1 242216Z 18012KT 34/17 A2968 RMK A01 T03350168  RH  037%=      5-min Rain = 0
KHE1 242217Z 17010KT 34/17 A2968 RMK A01 T03350169  RH  037%=      5-min Rain = 0
KHE1 242218Z 18012KT 34/17 A2968 RMK A01 T03370169  RH  037%=      5-min Rain = 0
KHE1 242219Z 19013KT 34/17 A2968 RMK A01 T03370170  RH  037%=      5-min Rain = 0
KHE1 242220Z 19012KT 34/17 A2968 RMK A01 T03360171  RH  037%=      5-min Rain = 0
KHE1 242221Z 18011KT 34/17 A2968 RMK A01 T03350172  RH  038%=      5-min Rain = 0
KHE1 242222Z 18013KT 33/17 A2968 RMK A01 T03340170  RH  038%=      5-min Rain = 0
KHE1 242223Z 18010KT 33/17 A2968 RMK A01 T03290169  RH  038%=      5-min Rain = 0
KHE1 242224Z 19009KT 33/17 A2968 RMK A01 T03270171  RH  039%=      5-min Rain = 0
KHE1 242225Z 20007KT 33/17 A2968 RMK A01 T03290172  RH  039%=      5-min Rain = 0
KHE1 242226Z 21006KT 33/17 A2967 RMK A01 T03340174  RH  039%=      5-min Rain = 0
KHE1 242227Z 20005KT 34/17 A2967 RMK A01 T03370173  RH  038%=      5-min Rain = 0
KHE1 242228Z 17007KT 34/17 A2967 RMK A01 T03380173  RH  038%=      5-min Rain = 0
KHE1 242229Z 18012KT 34/18 A2967 RMK A01 T03400175  RH  037%=      5-min Rain = 0
KHE1 242230Z 19012KT 34/17 A2967 RMK A01 T03390173  RH  037%=      5-min Rain = 0
KHE1 242231Z 20011KT 34/18 A2967 RMK A01 T03370175  RH  038%=      5-min Rain = 0
KHE1 242232Z 17010KT 34/18 A2967 RMK A01 T03380175  RH  038%=      5-min Rain = 0
KHE1 242233Z 17010KT 34/18 A2967 RMK A01 T03390176  RH  038%=      5-min Rain = 0
KHE1 242234Z 17010KT 34/17 A2967 RMK A01 T03380174  RH  038%=      5-min Rain = 0
KHE1 242235Z 17008KT 34/17 A2967 RMK A01 T03370174  RH  038%=      5-min Rain = 0
KHE1 242236Z 15008KT 34/18 A2967 RMK A01 T03370175  RH  038%=      5-min Rain = 0
KHE1 242237Z 14007KT 34/18 A2967 RMK A01 T03400177  RH  038%=      5-min Rain = 0
KHE1 242238Z 14008G13KT 34/17 A2967 RMK A01 T03420173  RH  037%=      5-min Rain = 0
KHE1 242239Z 14010KT 34/17 A2967 RMK A01 T03400173  RH  037%=      5-min Rain = 0
KHE1 242240Z 13008KT 34/18 A2967 RMK A01 T03400176  RH  038%=      5-min Rain = 0
KHE1 242241Z 13010KT 34/18 A2967 RMK A01 T03420176  RH  037%=      5-min Rain = 0
KHE1 242242Z 13010KT 34/18 A2967 RMK A01 T03410177  RH  038%=      5-min Rain = 0
KHE1 242243Z 14011KT 34/18 A2967 RMK A01 T03410175  RH  037%=      5-min Rain = 0
KHE1 242244Z 13010KT 34/18 A2967 RMK A01 T03390176  RH  038%=      5-min Rain = 0
KHE1 242245Z 14013KT 34/18 A2967 RMK A01 T03380176  RH  038%=      5-min Rain = 0
KHE1 242246Z 14011KT 34/17 A2967 RMK A01 T03360174  RH  038%=      5-min Rain = 0
KHE1 242247Z 14010KT 33/17 A2967 RMK A01 T03340174  RH  039%=      5-min Rain = 0
KHE1 242248Z 13008KT 33/17 A2967 RMK A01 T03340173  RH  038%=      5-min Rain = 0
KHE1 242249Z 13008KT 33/17 A2967 RMK A01 T03330173  RH  038%=      5-min Rain = 0
KHE1 242250Z 13008KT 33/17 A2967 RMK A01 T03340171  RH  038%=      5-min Rain = 0
KHE1 242251Z 15010G17KT 34/17 A2967 RMK A01 T03360170  RH  037%=      5-min Rain = 0
KHE1 242252Z 15011KT 34/17 A2967 RMK A01 T03370170  RH  037%=      5-min Rain = 0
KHE1 242253Z 13011KT 34/17 A2967 RMK A01 T03380171  RH  037%=      5-min Rain = 0
KHE1 242254Z 15013KT 34/17 A2967 RMK A01 T03400174  RH  037%=      5-min Rain = 0
KHE1 242255Z 15013KT 34/17 A2967 RMK A01 T03410173  RH  037%=      5-min Rain = 0
KHE1 242256Z 15012KT 34/17 A2967 RMK A01 T03400172  RH  037%=      5-min Rain = 0
KHE1 242257Z 15010KT 34/17 A2966 RMK A01 T03390174  RH  037%=      5-min Rain = 0
KHE1 242258Z 14013KT 34/17 A2966 RMK A01 T03420174  RH  037%=      5-min Rain = 0
KHE1 242259Z 14011KT 34/17 A2966 RMK A01 T03420172  RH  037%=      5-min Rain = 0
KHE1 242300Z 15013KT 34/17 A2966 RMK A01 T03410171  RH  036%=      5-min Rain = 0
KHE1 242301Z 15013KT 34/17 A2966 RMK A01 T03400171  RH  037%=      5-min Rain = 0
KHE1 242302Z 16015KT 34/17 A2966 RMK A01 T03380170  RH  037%=      5-min Rain = 0
KHE1 242303Z 16015KT 33/17 A2966 RMK A01 T03320169  RH  038%=      5-min Rain = 0
KHE1 242304Z 15015KT 33/17 A2966 RMK A01 T03280168  RH  038%=      5-min Rain = 0
KHE1 242305Z 15014KT 33/17 A2966 RMK A01 T03260167  RH  039%=      5-min Rain = 0
KHE1 242306Z 16011KT 33/17 A2966 RMK A01 T03250168  RH  039%=      5-min Rain = 0
KHE1 242307Z 15012KT 33/17 A2966 RMK A01 T03280169  RH  039%=      5-min Rain = 0
KHE1 242308Z 15010KT 33/17 A2966 RMK A01 T03290169  RH  038%=      5-min Rain = 0
KHE1 242309Z 15011KT 33/17 A2966 RMK A01 T03310168  RH  038%=      5-min Rain = 0
KHE1 242310Z 15009KT 33/17 A2966 RMK A01 T03310168  RH  038%=      5-min Rain = 0
KHE1 242311Z 15011KT 33/17 A2967 RMK A01 T03320169  RH  038%=      5-min Rain = 0
KHE1 242312Z 14012KT 33/17 A2967 RMK A01 T03300169  RH  038%=      5-min Rain = 0
KHE1 242313Z 13011KT 33/17 A2967 RMK A01 T03300170  RH  039%=      5-min Rain = 0
KHE1 242314Z 13010KT 33/17 A2967 RMK A01 T03320171  RH  038%=      5-min Rain = 0
KHE1 242315Z 13008KT 33/17 A2967 RMK A01 T03330170  RH  038%=      5-min Rain = 0
KHE1 242316Z 13012KT 33/17 A2967 RMK A01 T03330170  RH  038%=      5-min Rain = 0
KHE1 242317Z 14013KT 34/17 A2967 RMK A01 T03350168  RH  037%=      5-min Rain = 0
KHE1 242318Z 14014KT 34/17 A2967 RMK A01 T03350168  RH  037%=      5-min Rain = 0
KHE1 242319Z 15011KT 34/17 A2967 RMK A01 T03360169  RH  037%=      5-min Rain = 0
KHE1 242320Z 16013KT 34/17 A2966 RMK A01 T03380169  RH  036%=      5-min Rain = 0
KHE1 242321Z 17014KT 34/17 A2966 RMK A01 T03370170  RH  037%=      5-min Rain = 0
KHE1 242322Z 17014KT 34/17 A2966 RMK A01 T03360169  RH  037%=      5-min Rain = 0
KHE1 242323Z 17011KT 34/17 A2966 RMK A01 T03360169  RH  037%=      5-min Rain = 0
KHE1 242324Z 14012KT 34/17 A2966 RMK A01 T03370171  RH  037%=      5-min Rain = 0
KHE1 242325Z 14013KT 34/17 A2966 RMK A01 T03390170  RH  037%=      5-min Rain = 0
KHE1 242326Z 13013G18KT 34/17 A2966 RMK A01 T03390170  RH  037%=      5-min Rain = 0
KHE1 242327Z 14016KT 34/17 A2966 RMK A01 T03380171  RH  037%=      5-min Rain = 0
KHE1 242328Z 13017G23KT 34/17 A2966 RMK A01 T03370174  RH  038%=      5-min Rain = 0
KHE1 242329Z 13013KT 34/18 A2966 RMK A01 T03350179  RH  040%=      5-min Rain = 0
KHE1 242330Z 12015KT 33/18 A2966 RMK A01 T03340182  RH  041%=      5-min Rain = 0
KHE1 242331Z 11014KT 33/18 A2966 RMK A01 T03330181  RH  041%=      5-min Rain = 0
KHE1 242332Z 12015KT 33/18 A2966 RMK A01 T03310182  RH  041%=      5-min Rain = 0
KHE1 242333Z 11019G24KT 33/18 A2966 RMK A01 T03300181  RH  041%=      5-min Rain = 0
KHE1 242334Z 12018KT 33/18 A2966 RMK A01 T03270181  RH  042%=      5-min Rain = 0
KHE1 242335Z 12018KT 32/18 A2966 RMK A01 T03230181  RH  043%=      5-min Rain = 0
KHE1 242336Z 13019KT 32/18 A2966 RMK A01 T03210181  RH  043%=      5-min Rain = 0
KHE1 242337Z 13015G21KT 32/18 A2966 RMK A01 T03200180  RH  043%=      5-min Rain = 0
KHE1 242338Z 11015G21KT 32/18 A2966 RMK A01 T03190182  RH  044%=      5-min Rain = 0
KHE1 242339Z 12017KT 32/18 A2966 RMK A01 T03190182  RH  044%=      5-min Rain = 0
KHE1 242340Z 11017KT 32/18 A2966 RMK A01 T03180182  RH  044%=      5-min Rain = 0
KHE1 242341Z 13013KT 32/18 A2966 RMK A01 T03170184  RH  045%=      5-min Rain = 0
KHE1 242342Z 12012G17KT 32/18 A2966 RMK A01 T03180183  RH  045%=      5-min Rain = 0
KHE1 242343Z 11013KT 32/18 A2966 RMK A01 T03170184  RH  045%=      5-min Rain = 0
KHE1 242344Z 12016KT 32/18 A2966 RMK A01 T03170184  RH  045%=      5-min Rain = 0
KHE1 242345Z 12016KT 32/18 A2966 RMK A01 T03160184  RH  045%=      5-min Rain = 0
KHE1 242346Z 12016G21KT 32/18 A2965 RMK A01 T03160181  RH  045%=      5-min Rain = 0
KHE1 242347Z 12017KT 32/18 A2965 RMK A01 T03150180  RH  045%=      5-min Rain = 0
KHE1 242348Z 12015G21KT 32/18 A2965 RMK A01 T03150181  RH  045%=      5-min Rain = 0
KHE1 242349Z 13017KT 31/18 A2965 RMK A01 T03140180  RH  045%=      5-min Rain = 0
KHE1 242350Z 12016G22KT 31/18 A2965 RMK A01 T03140182  RH  045%=      5-min Rain = 0
KHE1 242351Z 12015G20KT 31/18 A2965 RMK A01 T03130182  RH  046%=      5-min Rain = 0
KHE1 242352Z 12015KT 31/18 A2965 RMK A01 T03120182  RH  046%=      5-min Rain = 0
KHE1 242353Z 11017G22KT 31/18 A2965 RMK A01 T03120182  RH  046%=      5-min Rain = 0
KHE1 242354Z 12016G21KT 31/18 A2965 RMK A01 T03120181  RH  046%=      5-min Rain = 0
KHE1 242355Z 11018KT 31/18 A2965 RMK A01 T03120180  RH  045%=      5-min Rain = 0
KHE1 242356Z 11019KT 31/18 A2965 RMK A01 T03120180  RH  045%=      5-min Rain = 0
KHE1 242357Z 11017KT 31/18 A2965 RMK A01 T03130179  RH  045%=      5-min Rain = 0
KHE1 242358Z 11019KT 31/18 A2965 RMK A01 T03140180  RH  045%=      5-min Rain = 0
KHE1 242359Z 11020G25KT 32/18 A2965 RMK A01 T03150179  RH  044%=      5-min Rain = 0
KHE1 250000Z 12021G26KT 32/18 A2965 RMK A01 T03150179  RH  044%=      5-min Rain = 0
KHE1 250001Z 12016KT 31/18 A2965 RMK A01 T03140180  RH  045%=      5-min Rain = 0
KHE1 250002Z 12017G23KT 31/18 A2965 RMK A01 T03140179  RH  045%=      5-min Rain = 0
KHE1 250003Z 11019G25KT 31/18 A2965 RMK A01 T03140179  RH  045%=      5-min Rain = 0
KHE1 250004Z 11018KT 31/18 A2965 RMK A01 T03140180  RH  045%=      5-min Rain = 0
KHE1 250005Z 10025G30KT 31/18 A2965 RMK A01 T03130180  RH  045%=      5-min Rain = 0
KHE1 250006Z 11026G34KT 31/19 A2965 RMK A01 T03100189  RH  049%=      5-min Rain = 0
KHE1 250007Z 13028G37KT 30/19 A2965 RMK A01 T02980189  RH  052%=      5-min Rain = 0
KHE1 250008Z 12029G34KT 28/19 A2966 RMK A01 T02830188  RH  056%=      5-min Rain = 0
KHE1 250009Z 12027G32KT 27/19 A2966 RMK A01 T02730188  RH  060%=      5-min Rain = 0
KHE1 250010Z 12025G34KT 27/19 A2966 RMK A01 T02680189  RH  062%=      5-min Rain = 0
KHE1 250011Z 12022G30KT 27/19 A2966 RMK A01 T02660190  RH  063%=      5-min Rain = 0
KHE1 250012Z 12018G25KT 26/19 A2966 RMK A01 T02640191  RH  064%=      5-min Rain = 0
KHE1 250013Z 12020G27KT 26/19 A2966 RMK A01 T02640191  RH  064%=      5-min Rain = 0
KHE1 250014Z 12019G28KT 26/19 A2966 RMK A01 T02630191  RH  065%=      5-min Rain = 0
KHE1 250015Z 12022G29KT 26/19 A2966 RMK A01 T02620191  RH  065%=      5-min Rain = 0
KHE1 250016Z 12024G31KT 26/19 A2966 RMK A01 T02600189  RH  065%=      5-min Rain = 0
KHE1 250017Z 12022G29KT 26/19 A2966 RMK A01 T02590188  RH  065%=      5-min Rain = 0
KHE1 250018Z 12023G29KT 26/19 A2966 RMK A01 T02580188  RH  065%=      5-min Rain = 0
KHE1 250019Z 12019KT 26/19 A2966 RMK A01 T02570187  RH  066%=      5-min Rain = 0
KHE1 250020Z 11023G33KT 26/19 A2966 RMK A01 T02560188  RH  066%=      5-min Rain = 0
KHE1 250021Z 11025G31KT 26/19 A2966 RMK A01 T02560188  RH  066%=      5-min Rain = 0
KHE1 250022Z 11024G29KT 26/19 A2966 RMK A01 T02550187  RH  066%=      5-min Rain = 0
KHE1 250023Z 12019G25KT 26/19 A2966 RMK A01 T02550188  RH  066%=      5-min Rain = 0
KHE1 250024Z 11018KT 26/19 A2966 RMK A01 T02550189  RH  067%=      5-min Rain = 0
KHE1 250025Z 12021G27KT 26/19 A2967 RMK A01 T02550189  RH  067%=      5-min Rain = 0
KHE1 250026Z 12020G28KT 26/19 A2967 RMK A01 T02550189  RH  067%=      5-min Rain = 0
KHE1 250027Z 12022KT 26/19 A2967 RMK A01 T02550188  RH  067%=      5-min Rain = 0
KHE1 250028Z 12019KT 25/19 A2967 RMK A01 T02540188  RH  067%=      5-min Rain = 0
KHE1 250029Z 12019G27KT 25/19 A2968 RMK A01 T02530187  RH  067%=      5-min Rain = 0
KHE1 250030Z 11019G24KT 25/19 A2968 RMK A01 T02520187  RH  067%=      5-min Rain = 0
KHE1 250031Z 11023G28KT 25/19 A2967 RMK A01 T02510187  RH  067%=      5-min Rain = 0
KHE1 250032Z 12023G28KT 25/19 A2968 RMK A01 T02500186  RH  068%=      5-min Rain = 0
KHE1 250033Z 11022KT 25/19 A2968 RMK A01 T02490186  RH  068%=      5-min Rain = 0
KHE1 250034Z 12022G27KT 25/19 A2968 RMK A01 T02480186  RH  069%=      5-min Rain = 0
KHE1 250035Z 11025KT 25/19 A2968 RMK A01 T02470186  RH  069%=      5-min Rain = 0
KHE1 250036Z 12024G32KT 25/19 A2968 RMK A01 T02470186  RH  069%=      5-min Rain = 0
KHE1 250037Z 12019G25KT 25/19 A2968 RMK A01 T02460186  RH  069%=      5-min Rain = 0
KHE1 250038Z 11021KT 25/19 A2967 RMK A01 T02450186  RH  070%=      5-min Rain = 0
KHE1 250039Z 12018G23KT 25/19 A2967 RMK A01 T02450186  RH  070%=      5-min Rain = 0
KHE1 250040Z 11020G25KT 24/19 A2967 RMK A01 T02440186  RH  070%=      5-min Rain = 0
KHE1 250041Z 12019G24KT 24/19 A2967 RMK A01 T02430186  RH  070%=      5-min Rain = 0
KHE1 250042Z 12021G28KT 24/19 A2967 RMK A01 T02420187  RH  071%=      5-min Rain = 0
KHE1 250043Z 12019G24KT 24/19 A2967 RMK A01 T02410187  RH  072%=      5-min Rain = 0
KHE1 250044Z 12018KT 24/19 A2967 RMK A01 T02400188  RH  073%=      5-min Rain = 0
KHE1 250045Z 12017G22KT 24/19 A2967 RMK A01 T02390189  RH  074%=      5-min Rain = 0
KHE1 250046Z 12020G27KT 24/19 A2967 RMK A01 T02380190  RH  074%=      5-min Rain = 0
KHE1 250047Z 13019KT 24/19 A2967 RMK A01 T02370190  RH  075%=      5-min Rain = 0
KHE1 250048Z 13018KT 24/19 A2968 RMK A01 T02360191  RH  076%=      5-min Rain = 0
KHE1 250049Z 13019G24KT 24/19 A2968 RMK A01 T02350190  RH  076%=      5-min Rain = 0
KHE1 250050Z 12018KT 23/19 A2967 RMK A01 T02340190  RH  076%=      5-min Rain = 0
KHE1 250051Z 13015G20KT 23/19 A2967 RMK A01 T02340191  RH  076%=      5-min Rain = 0
KHE1 250052Z 13013G18KT 23/19 A2967 RMK A01 T02340191  RH  077%=      5-min Rain = 0
KHE1 250053Z 12016G26KT 23/19 A2967 RMK A01 T02330190  RH  077%=      5-min Rain = 0
KHE1 250054Z 12019G24KT 23/19 A2966 RMK A01 T02340189  RH  076%=      5-min Rain = 0
KHE1 250055Z 12019G24KT 23/19 A2966 RMK A01 T02340189  RH  076%=      5-min Rain = 0
KHE1 250056Z 12016G24KT 23/19 A2966 RMK A01 T02330189  RH  076%=      5-min Rain = 0
KHE1 250057Z 12018KT 23/19 A2966 RMK A01 T02330189  RH  076%=      5-min Rain = 0
KHE1 250058Z 12016KT 23/19 A2967 RMK A01 T02330189  RH  076%=      5-min Rain = 0
KHE1 250059Z 13017KT 23/19 A2967 RMK A01 T02330189  RH  076%=      5-min Rain = 0
KHE1 250100Z 13016KT 23/19 A2967 RMK A01 T02340189  RH  076%=      5-min Rain = 0
KHE1 250101Z 13017KT 23/19 A2967 RMK A01 T02340190  RH  076%=      5-min Rain = 0
KHE1 250102Z 12018KT 23/19 A2967 RMK A01 T02330189  RH  076%=      5-min Rain = 0
KHE1 250103Z 13016KT 23/19 A2967 RMK A01 T02330189  RH  076%=      5-min Rain = 0
KHE1 250104Z 12013G18KT 23/19 A2967 RMK A01 T02330190  RH  077%=      5-min Rain = 0
KHE1 250105Z 12015G20KT 23/19 A2966 RMK A01 T02320190  RH  077%=      5-min Rain = 0
KHE1 250106Z 12015KT 23/19 A2966 RMK A01 T02320189  RH  077%=      5-min Rain = 0
KHE1 250107Z 12015KT 23/19 A2966 RMK A01 T02320188  RH  076%=      5-min Rain = 0
KHE1 250108Z 12017KT 23/19 A2966 RMK A01 T02320187  RH  076%=      5-min Rain = 0
KHE1 250109Z 12019KT 23/19 A2965 RMK A01 T02320185  RH  075%=      5-min Rain = 0
KHE1 250110Z 12015KT 23/19 A2965 RMK A01 T02310185  RH  075%=      5-min Rain = 0
KHE1 250111Z 12014KT 23/19 A2965 RMK A01 T02310186  RH  076%=      5-min Rain = 0
KHE1 250112Z 12013G18KT 23/19 A2966 RMK A01 T02310186  RH  076%=      5-min Rain = 0
KHE1 250113Z 12014KT 23/19 A2966 RMK A01 T02300186  RH  076%=      5-min Rain = 0
KHE1 250114Z 12013G18KT 23/19 A2966 RMK A01 T02300185  RH  076%=      5-min Rain = 0
KHE1 250115Z 12019KT 23/18 A2966 RMK A01 T02300181  RH  074%=      5-min Rain = 0
KHE1 250116Z 13018KT 23/18 A2966 RMK A01 T02300177  RH  072%=      5-min Rain = 0
KHE1 250117Z 14018KT 23/18 A2967 RMK A01 T02310176  RH  071%=      5-min Rain = 0
KHE1 250118Z 13018KT 23/18 A2967 RMK A01 T02310175  RH  071%=      5-min Rain = 0
KHE1 250119Z 13017G23KT 23/17 A2967 RMK A01 T02310174  RH  070%=      5-min Rain = 0
KHE1 250120Z 13016KT 23/17 A2967 RMK A01 T02310174  RH  070%=      5-min Rain = 0
KHE1 250121Z 12016KT 23/17 A2968 RMK A01 T02310173  RH  070%=      5-min Rain = 0
KHE1 250122Z 13013KT 23/17 A2968 RMK A01 T02310174  RH  070%=      5-min Rain = 0
KHE1 250123Z 12015KT 23/17 A2968 RMK A01 T02310173  RH  070%=      5-min Rain = 0
KHE1 250124Z 12015KT 23/17 A2967 RMK A01 T02310171  RH  069%=      5-min Rain = 0
KHE1 250125Z 12012G17KT 23/17 A2967 RMK A01 T02320172  RH  069%=      5-min Rain = 0
KHE1 250126Z 12012G17KT 23/17 A2968 RMK A01 T02320172  RH  069%=      5-min Rain = 0
KHE1 250127Z 12012KT 23/17 A2968 RMK A01 T02320171  RH  069%=      5-min Rain = 0
KHE1 250128Z 12017KT 23/17 A2968 RMK A01 T02320170  RH  068%=      5-min Rain = 0
KHE1 250129Z 12013KT 23/17 A2968 RMK A01 T02320170  RH  068%=      5-min Rain = 0
KHE1 250130Z 12018KT 23/17 A2968 RMK A01 T02330167  RH  067%=      5-min Rain = 0
KHE1 250131Z 12017KT 23/17 A2968 RMK A01 T02340166  RH  065%=      5-min Rain = 0
KHE1 250132Z 11017KT 24/17 A2968 RMK A01 T02350167  RH  066%=      5-min Rain = 0
KHE1 250133Z 11016KT 24/17 A2968 RMK A01 T02350168  RH  066%=      5-min Rain = 0
KHE1 250134Z 11014KT 24/17 A2968 RMK A01 T02350169  RH  067%=      5-min Rain = 0
KHE1 250135Z 11015KT 23/17 A2968 RMK A01 T02340170  RH  067%=      5-min Rain = 0
KHE1 250136Z 11014KT 23/17 A2968 RMK A01 T02340170  RH  067%=      5-min Rain = 0
KHE1 250137Z 11014KT 23/17 A2967 RMK A01 T02340171  RH  068%=      5-min Rain = 0
KHE1 250138Z 10017KT 23/17 A2967 RMK A01 T02330169  RH  067%=      5-min Rain = 0
KHE1 250139Z 11015KT 23/17 A2967 RMK A01 T02330169  RH  067%=      5-min Rain = 0
KHE1 250140Z 11015KT 23/17 A2967 RMK A01 T02330169  RH  067%=      5-min Rain = 0
KHE1 250141Z 11016KT 23/17 A2967 RMK A01 T02330169  RH  067%=      5-min Rain = 0
KHE1 250142Z 11015KT 23/17 A2968 RMK A01 T02330168  RH  067%=      5-min Rain = 0
KHE1 250143Z 12014KT 23/17 A2968 RMK A01 T02320167  RH  067%=      5-min Rain = 0
KHE1 250144Z 11012KT 23/17 A2968 RMK A01 T02330169  RH  067%=      5-min Rain = 0
KHE1 250145Z 11013KT 23/17 A2969 RMK A01 T02320169  RH  067%=      5-min Rain = 0
KHE1 250146Z 11014KT 23/17 A2969 RMK A01 T02320169  RH  067%=      5-min Rain = 0
KHE1 250147Z 12013KT 23/17 A2969 RMK A01 T02320168  RH  067%=      5-min Rain = 0
KHE1 250148Z 12013KT 23/17 A2969 RMK A01 T02320169  RH  068%=      5-min Rain = 0
KHE1 250149Z 12011KT 23/17 A2969 RMK A01 T02320169  RH  068%=      5-min Rain = 0
KHE1 250150Z 11014G21KT 23/17 A2969 RMK A01 T02320168  RH  067%=      5-min Rain = 0
KHE1 250151Z 12013G20KT 23/17 A2969 RMK A01 T02310166  RH  067%=      5-min Rain = 0
KHE1 250152Z 11014KT 23/17 A2969 RMK A01 T02310167  RH  067%=      5-min Rain = 0
KHE1 250153Z 12013KT 23/17 A297 RMK A01 T02310167  RH  067%=      5-min Rain = 0
KHE1 250154Z 11010KT 23/17 A297 RMK A01 T02310168  RH  068%=      5-min Rain = 0
KHE1 250155Z 11014KT 23/17 A297 RMK A01 T02310167  RH  067%=      5-min Rain = 0
KHE1 250156Z 12015G21KT 23/17 A297 RMK A01 T02310166  RH  067%=      5-min Rain = 0
KHE1 250157Z 12017KT 23/17 A297 RMK A01 T02310166  RH  067%=      5-min Rain = 0
KHE1 250158Z 12014KT 23/17 A2971 RMK A01 T02310166  RH  067%=      5-min Rain = 0
KHE1 250159Z 12016G22KT 23/17 A2971 RMK A01 T02300166  RH  067%=      5-min Rain = 0
KHE1 250200Z 13013G18KT 23/17 A2971 RMK A01 T02300165  RH  067%=      5-min Rain = 0
KHE1 250201Z 12012KT 23/17 A297 RMK A01 T02300166  RH  067%=      5-min Rain = 0
KHE1 250202Z 12011KT 23/17 A297 RMK A01 T02300166  RH  067%=      5-min Rain = 0
KHE1 250203Z 13014KT 23/17 A297 RMK A01 T02290166  RH  068%=      5-min Rain = 0
KHE1 250204Z 12014G19KT 23/17 A297 RMK A01 T02290166  RH  067%=      5-min Rain = 0
KHE1 250205Z 13014KT 23/17 A297 RMK A01 T02290165  RH  067%=      5-min Rain = 0
KHE1 250206Z 13015G21KT 23/16 A297 RMK A01 T02290164  RH  067%=      5-min Rain = 0
KHE1 250207Z 12015G21KT 23/16 A297 RMK A01 T02290164  RH  067%=      5-min Rain = 0
KHE1 250208Z 13019G24KT 23/16 A297 RMK A01 T02290164  RH  067%=      5-min Rain = 0
KHE1 250209Z 13017G22KT 23/16 A297 RMK A01 T02290163  RH  067%=      5-min Rain = 0
KHE1 250210Z 13016KT 23/16 A297 RMK A01 T02280163  RH  067%=      5-min Rain = 0
KHE1 250211Z 13017G23KT 23/16 A297 RMK A01 T02280164  RH  067%=      5-min Rain = 0
KHE1 250212Z 13015KT 23/16 A297 RMK A01 T02280163  RH  067%=      5-min Rain = 0
KHE1 250213Z 13015KT 23/16 A297 RMK A01 T02280163  RH  067%=      5-min Rain = 0
KHE1 250214Z 13014KT 23/16 A297 RMK A01 T02280164  RH  067%=      5-min Rain = 0
KHE1 250215Z 13015G20KT 23/16 A297 RMK A01 T02270164  RH  067%=      5-min Rain = 0
KHE1 250216Z 13013KT 23/16 A297 RMK A01 T02270163  RH  067%=      5-min Rain = 0
KHE1 250217Z 13016KT 23/16 A2971 RMK A01 T02270164  RH  067%=      5-min Rain = 0
KHE1 250218Z 13013G18KT 23/16 A2971 RMK A01 T02270164  RH  067%=      5-min Rain = 0
KHE1 250219Z 13015KT 23/16 A2971 RMK A01 T02270164  RH  068%=      5-min Rain = 0
KHE1 250220Z 13014KT 23/16 A2971 RMK A01 T02270164  RH  068%=      5-min Rain = 0
KHE1 250221Z 13015KT 23/16 A2972 RMK A01 T02270164  RH  068%=      5-min Rain = 0
KHE1 250222Z 13014KT 23/16 A2972 RMK A01 T02260164  RH  068%=      5-min Rain = 0
KHE1 250223Z 14012KT 23/16 A2972 RMK A01 T02260164  RH  068%=      5-min Rain = 0
KHE1 250224Z 14018KT 23/16 A2973 RMK A01 T02260164  RH  068%=      5-min Rain = 0
KHE1 250225Z 14014KT 23/16 A2973 RMK A01 T02260164  RH  068%=      5-min Rain = 0
KHE1 250226Z 13012KT 23/16 A2973 RMK A01 T02260164  RH  068%=      5-min Rain = 0
KHE1 250227Z 14013KT 23/17 A2974 RMK A01 T02260165  RH  068%=      5-min Rain = 0
KHE1 250228Z 14013KT 23/16 A2974 RMK A01 T02260164  RH  068%=      5-min Rain = 0
KHE1 250229Z 14011KT 23/17 A2974 RMK A01 T02260165  RH  068%=      5-min Rain = 0
KHE1 250230Z 14013KT 23/17 A2975 RMK A01 T02260165  RH  068%=      5-min Rain = 0
KHE1 250231Z 14012KT 23/17 A2975 RMK A01 T02260165  RH  068%=      5-min Rain = 0
KHE1 250232Z 14011KT 23/17 A2976 RMK A01 T02260165  RH  069%=      5-min Rain = 0
KHE1 250233Z 14014KT 23/17 A2976 RMK A01 T02260165  RH  068%=      5-min Rain = 0
KHE1 250234Z 14014KT 23/17 A2976 RMK A01 T02260165  RH  068%=      5-min Rain = 0
KHE1 250235Z 14014KT 23/17 A2976 RMK A01 T02260165  RH  068%=      5-min Rain = 0
KHE1 250236Z 14011G17KT 23/17 A2976 RMK A01 T02260165  RH  068%=      5-min Rain = 0
KHE1 250237Z 14013KT 23/17 A2976 RMK A01 T02260165  RH  068%=      5-min Rain = 0
KHE1 250238Z 14012KT 23/17 A2976 RMK A01 T02260165  RH  068%=      5-min Rain = 0
KHE1 250239Z 14012KT 23/17 A2976 RMK A01 T02270165  RH  068%=      5-min Rain = 0
KHE1 250240Z 14012KT 23/17 A2977 RMK A01 T02270165  RH  068%=      5-min Rain = 0
KHE1 250241Z 14012KT 23/17 A2977 RMK A01 T02270165  RH  068%=      5-min Rain = 0
KHE1 250242Z 14012KT 23/17 A2977 RMK A01 T02270165  RH  068%=      5-min Rain = 0
KHE1 250243Z 14014KT 23/17 A2977 RMK A01 T02260166  RH  068%=      5-min Rain = 0
KHE1 250244Z 14013KT 23/17 A2977 RMK A01 T02270166  RH  068%=      5-min Rain = 0
KHE1 250245Z 14014KT 23/17 A2977 RMK A01 T02270165  RH  068%=      5-min Rain = 0
KHE1 250246Z 14013KT 23/17 A2977 RMK A01 T02270165  RH  068%=      5-min Rain = 0
KHE1 250247Z 13011KT 23/17 A2978 RMK A01 T02270165  RH  068%=      5-min Rain = 0
KHE1 250248Z 13013KT 23/17 A2977 RMK A01 T02270165  RH  068%=      5-min Rain = 0
KHE1 250249Z 13012KT 23/17 A2977 RMK A01 T02270166  RH  068%=      5-min Rain = 0
KHE1 250250Z 13014KT 23/17 A2977 RMK A01 T02270166  RH  068%=      5-min Rain = 0
KHE1 250251Z 13012KT 23/17 A2977 RMK A01 T02270166  RH  068%=      5-min Rain = 0
KHE1 250252Z 13014KT 23/17 A2977 RMK A01 T02270166  RH  069%=      5-min Rain = 0
KHE1 250253Z 13014KT 23/17 A2977 RMK A01 T02260166  RH  069%=      5-min Rain = 0
KHE1 250254Z 14013KT 23/17 A2978 RMK A01 T02260166  RH  069%=      5-min Rain = 0
KHE1 250255Z 14015KT 23/17 A2978 RMK A01 T02260166  RH  069%=      5-min Rain = 0
KHE1 250256Z 16015G20KT 23/17 A2979 RMK A01 T02260166  RH  069%=      5-min Rain = 0
KHE1 250257Z 17016KT 23/17 A298 RMK A01 T02260167  RH  069%=      5-min Rain = 0
KHE1 250258Z 17016KT 23/17 A298 RMK A01 T02270167  RH  069%=      5-min Rain = 0
KHE1 250259Z 17018G24KT 23/17 A2979 RMK A01 T02270167  RH  069%=      5-min Rain = 0
KHE1 250300Z 17019G25KT 23/17 A2979 RMK A01 T02270167  RH  069%=      5-min Rain = 0
KHE1 250301Z 17020KT 23/17 A2979 RMK A01 T02270168  RH  069%=      5-min Rain = 0
KHE1 250302Z 16020KT 23/17 A2979 RMK A01 T02260168  RH  069%=      5-min Rain = 0
KHE1 250303Z 16018G24KT 23/17 A2979 RMK A01 T02260168  RH  070%=      5-min Rain = 0
KHE1 250304Z 16020KT 23/17 A2979 RMK A01 T02260168  RH  070%=      5-min Rain = 0
KHE1 250305Z 16017KT 23/17 A2979 RMK A01 T02250169  RH  070%=      5-min Rain = 0
KHE1 250306Z 17017G23KT 23/17 A298 RMK A01 T02250169  RH  071%=      5-min Rain = 0
KHE1 250307Z 17014G21KT 23/17 A298 RMK A01 T02250170  RH  071%=      5-min Rain = 0
KHE1 250308Z 17011KT 23/17 A298 RMK A01 T02250170  RH  071%=      5-min Rain = 0
KHE1 250309Z 17010KT 23/17 A2981 RMK A01 T02250171  RH  071%=      5-min Rain = 0
KHE1 250310Z 17012KT 22/17 A2981 RMK A01 T02240171  RH  072%=      5-min Rain = 0
KHE1 250311Z 18010KT 23/17 A2982 RMK A01 T02250171  RH  072%=      5-min Rain = 0
KHE1 250312Z 19007KT 22/17 A2982 RMK A01 T02240172  RH  072%=      5-min Rain = 0
KHE1 250313Z 22006KT 23/17 A2983 RMK A01 T02250172  RH  072%=      5-min Rain = 0
KHE1 250314Z 25006KT 22/17 A2983 RMK A01 T02240172  RH  072%=      5-min Rain = 0
KHE1 250315Z 27008KT 22/17 A2984 RMK A01 T02240173  RH  073%=      5-min Rain = 0
KHE1 250316Z 30011KT 22/17 A2984 RMK A01 T02240174  RH  073%=      5-min Rain = 0
KHE1 250317Z 30013KT 22/17 A2984 RMK A01 T02210166  RH  071%=      5-min Rain = 0
KHE1 250318Z 29015G20KT 21/16 A2984 RMK A01 T02130161  RH  072%=      5-min Rain = 0
KHE1 250319Z 29021KT 21/16 A2984 RMK A01 T02060161  RH  075%=      5-min Rain = 0
KHE1 250320Z 29022KT 20/16 A2983 RMK A01 T02010162  RH  078%=      5-min Rain = 0
KHE1 250321Z 29023KT 20/16 A2983 RMK A01 T01970164  RH  081%=      5-min Rain = 0
KHE1 250322Z 29022KT 19/17 A2983 RMK A01 T01940166  RH  084%=      5-min Rain = 0
KHE1 250323Z 29021KT 19/17 A2983 RMK A01 T01920169  RH  086%=      5-min Rain = 0
KHE1 250324Z 29021KT 19/17 A2983 RMK A01 T01900170  RH  088%=      5-min Rain = 0
KHE1 250325Z 29025G30KT 19/17 A2982 RMK A01 T01880171  RH  089%=      5-min Rain = 0
KHE1 250326Z 29026KT 19/17 A2982 RMK A01 T01860169  RH  090%=      5-min Rain = 0.01
KHE1 250327Z 29025KT 18/17 A2982 RMK A01 T01840169  RH  091%=      5-min Rain = 0
KHE1 250328Z 29023KT 18/17 A2982 RMK A01 T01820169  RH  092%=      5-min Rain = 0.01
KHE1 250329Z 29021KT 18/17 A2982 RMK A01 T01800170  RH  093%=      5-min Rain = 0
KHE1 250330Z 29019KT 18/17 A2982 RMK A01 T01790170  RH  094%=      5-min Rain = 0.01
KHE1 250331Z 29022KT 18/17 A2982 RMK A01 T01790170  RH  095%=      5-min Rain = 0
KHE1 250332Z 29019KT 18/17 A2982 RMK A01 T01780169  RH  095%=      5-min Rain = 0
KHE1 250333Z 30020KT 18/17 A2983 RMK A01 T01780170  RH  095%=      5-min Rain = 0
KHE1 250334Z 30020KT 18/17 A2983 RMK A01 T01770169  RH  095%=      5-min Rain = 0
KHE1 250335Z 31020KT 18/17 A2983 RMK A01 T01770169  RH  095%=      5-min Rain = 0
KHE1 250336Z 31017KT 18/17 A2984 RMK A01 T01770169  RH  095%=      5-min Rain = 0
KHE1 250337Z 31018KT 18/17 A2984 RMK A01 T01760169  RH  096%=      5-min Rain = 0
KHE1 250338Z 32017KT 18/17 A2983 RMK A01 T01760170  RH  096%=      5-min Rain = 0
KHE1 250339Z 32016KT 18/17 A2984 RMK A01 T01760170  RH  096%=      5-min Rain = 0
KHE1 250340Z 32017KT 18/17 A2984 RMK A01 T01770170  RH  096%=      5-min Rain = 0
KHE1 250341Z 32017KT 18/17 A2984 RMK A01 T01760170  RH  096%=      5-min Rain = 0.01
KHE1 250342Z 33016KT 18/17 A2984 RMK A01 T01760170  RH  096%=      5-min Rain = 0
KHE1 250343Z 33015G21KT 18/17 A2983 RMK A01 T01750169  RH  096%=      5-min Rain = 0
KHE1 250344Z 34014G21KT 18/17 A2983 RMK A01 T01750168  RH  096%=      5-min Rain = 0
KHE1 250345Z 34014KT 18/17 A2983 RMK A01 T01750168  RH  096%=      5-min Rain = 0
KHE1 250346Z 33013KT 18/17 A2984 RMK A01 T01750168  RH  096%=      5-min Rain = 0
KHE1 250347Z 33012KT 18/17 A2984 RMK A01 T01750168  RH  096%=      5-min Rain = 0
KHE1 250348Z 33009KT 17/17 A2984 RMK A01 T01740168  RH  096%=      5-min Rain = 0
KHE1 250349Z 33009KT 17/17 A2984 RMK A01 T01740169  RH  096%=      5-min Rain = 0
KHE1 250350Z 33012KT 18/17 A2984 RMK A01 T01750169  RH  096%=      5-min Rain = 0
KHE1 250351Z 33012KT 17/17 A2984 RMK A01 T01740168  RH  096%=      5-min Rain = 0
KHE1 250352Z 33011KT 17/17 A2984 RMK A01 T01740168  RH  096%=      5-min Rain = 0
KHE1 250353Z 33011KT 17/17 A2984 RMK A01 T01740168  RH  096%=      5-min Rain = 0
KHE1 250354Z 33009KT 17/17 A2984 RMK A01 T01740168  RH  097%=      5-min Rain = 0
KHE1 250355Z 34011KT 17/17 A2984 RMK A01 T01740169  RH  097%=      5-min Rain = 0.01
KHE1 250356Z 34011KT 17/17 A2984 RMK A01 T01740169  RH  097%=      5-min Rain = 0
KHE1 250357Z 34012KT 17/17 A2984 RMK A01 T01740169  RH  097%=      5-min Rain = 0
KHE1 250358Z 34012KT 17/17 A2984 RMK A01 T01740169  RH  097%=      5-min Rain = 0
KHE1 250359Z 34014KT 17/17 A2984 RMK A01 T01740169  RH  097%=      5-min Rain = 0
KHE1 250400Z 34011KT 17/17 A2984 RMK A01 T01740168  RH  096%=      5-min Rain = 0
KHE1 250401Z 34011KT 17/17 A2985 RMK A01 T01740168  RH  096%=      5-min Rain = 0
KHE1 250402Z 35010KT 17/17 A2985 RMK A01 T01730168  RH  096%=      5-min Rain = 0
KHE1 250403Z 35011KT 17/17 A2985 RMK A01 T01730168  RH  096%=      5-min Rain = 0
KHE1 250404Z 35012KT 17/17 A2985 RMK A01 T01730167  RH  096%=      5-min Rain = 0
KHE1 250405Z 35011KT 17/17 A2985 RMK A01 T01730167  RH  096%=      5-min Rain = 0
KHE1 250406Z 35010KT 17/17 A2985 RMK A01 T01730167  RH  096%=      5-min Rain = 0
KHE1 250407Z 35010KT 17/17 A2986 RMK A01 T01730167  RH  096%=      5-min Rain = 0
KHE1 250408Z 00011KT 17/17 A2986 RMK A01 T01730167  RH  096%=      5-min Rain = 0
KHE1 250409Z 01012KT 17/17 A2986 RMK A01 T01730167  RH  096%=      5-min Rain = 0
KHE1 250410Z 02011KT 17/17 A2986 RMK A01 T01730166  RH  096%=      5-min Rain = 0
KHE1 250411Z 02010KT 17/17 A2986 RMK A01 T01730166  RH  096%=      5-min Rain = 0
KHE1 250412Z 02010KT 17/17 A2986 RMK A01 T01730167  RH  096%=      5-min Rain = 0
KHE1 250413Z 03009KT 17/17 A2986 RMK A01 T01730167  RH  096%=      5-min Rain = 0
KHE1 250414Z 03011KT 17/17 A2987 RMK A01 T01740168  RH  096%=      5-min Rain = 0
KHE1 250415Z 03010KT 17/17 A2987 RMK A01 T01740167  RH  096%=      5-min Rain = 0
KHE1 250416Z 03010KT 17/17 A2987 RMK A01 T01740167  RH  096%=      5-min Rain = 0
KHE1 250417Z 03010KT 17/17 A2987 RMK A01 T01740167  RH  096%=      5-min Rain = 0
KHE1 250418Z 03010KT 17/17 A2987 RMK A01 T01740167  RH  096%=      5-min Rain = 0.01
KHE1 250419Z 03008KT 17/17 A2987 RMK A01 T01740167  RH  096%=      5-min Rain = 0
KHE1 250420Z 02006KT 17/17 A2988 RMK A01 T01740167  RH  096%=      5-min Rain = 0
KHE1 250421Z 03009KT 17/17 A2988 RMK A01 T01740168  RH  096%=      5-min Rain = 0
KHE1 250422Z 03010KT 17/17 A2988 RMK A01 T01740167  RH  096%=      5-min Rain = 0
KHE1 250423Z 04010KT 17/17 A2988 RMK A01 T01740167  RH  095%=      5-min Rain = 0
KHE1 250424Z 04012KT 17/17 A2988 RMK A01 T01740167  RH  095%=      5-min Rain = 0
KHE1 250425Z 03012KT 17/17 A2988 RMK A01 T01740166  RH  095%=      5-min Rain = 0
KHE1 250426Z 03011KT 17/17 A2988 RMK A01 T01740166  RH  095%=      5-min Rain = 0
KHE1 250427Z 02011KT 17/17 A2988 RMK A01 T01740166  RH  095%=      5-min Rain = 0
KHE1 250428Z 03011KT 17/17 A2988 RMK A01 T01740166  RH  095%=      5-min Rain = 0.01
KHE1 250429Z 02013KT 17/17 A2988 RMK A01 T01740167  RH  095%=      5-min Rain = 0
KHE1 250430Z 02011KT 17/17 A2988 RMK A01 T01740167  RH  096%=      5-min Rain = 0
KHE1 250431Z 02013KT 17/17 A2988 RMK A01 T01740167  RH  096%=      5-min Rain = 0.01
KHE1 250432Z 01012KT 17/17 A2988 RMK A01 T01730167  RH  096%=      5-min Rain = 0
KHE1 250433Z 01014KT 17/17 A2988 RMK A01 T01730167  RH  096%=      5-min Rain = 0
KHE1 250434Z 02015KT 17/17 A2988 RMK A01 T01730167  RH  096%=      5-min Rain = 0
KHE1 250435Z 02014KT 17/17 A2988 RMK A01 T01730167  RH  096%=      5-min Rain = 0.01
KHE1 250436Z 02012KT 17/17 A2988 RMK A01 T01730167  RH  096%=      5-min Rain = 0
KHE1 250437Z 03014KT 17/17 A2988 RMK A01 T01730167  RH  096%=      5-min Rain = 0
KHE1 250438Z 03013KT 17/17 A2988 RMK A01 T01730167  RH  096%=      5-min Rain = 0
KHE1 250439Z 03011KT 17/17 A2988 RMK A01 T01730167  RH  096%=      5-min Rain = 0
KHE1 250440Z 04011KT 17/17 A2989 RMK A01 T01730167  RH  097%=      5-min Rain = 0
KHE1 250441Z 04012KT 17/17 A2989 RMK A01 T01730167  RH  097%=      5-min Rain = 0
KHE1 250442Z 04012KT 17/17 A2989 RMK A01 T01730167  RH  097%=      5-min Rain = 0
KHE1 250443Z 04011KT 17/17 A2989 RMK A01 T01730167  RH  097%=      5-min Rain = 0
KHE1 250444Z 05010KT 17/17 A2989 RMK A01 T01730168  RH  097%=      5-min Rain = 0.01
KHE1 250445Z 05011KT 17/17 A2989 RMK A01 T01720167  RH  097%=      5-min Rain = 0
KHE1 250446Z 05009KT 17/17 A2989 RMK A01 T01720167  RH  097%=      5-min Rain = 0
KHE1 250447Z 05009KT 17/17 A2989 RMK A01 T01720167  RH  097%=      5-min Rain = 0
KHE1 250448Z 05007KT 17/17 A299 RMK A01 T01720167  RH  097%=      5-min Rain = 0
KHE1 250449Z 04009KT 17/17 A299 RMK A01 T01720167  RH  097%=      5-min Rain = 0
KHE1 250450Z 04008KT 17/17 A299 RMK A01 T01720167  RH  097%=      5-min Rain = 0
KHE1 250451Z 04006KT 17/17 A299 RMK A01 T01720167  RH  097%=      5-min Rain = 0
KHE1 250452Z 03007KT 17/17 A299 RMK A01 T01720167  RH  097%=      5-min Rain = 0.01
KHE1 250453Z 03008KT 17/17 A299 RMK A01 T01720167  RH  097%=      5-min Rain = 0
KHE1 250454Z 03010KT 17/17 A299 RMK A01 T01720167  RH  097%=      5-min Rain = 0
KHE1 250455Z 02009KT 17/17 A299 RMK A01 T01710166  RH  097%=      5-min Rain = 0
KHE1 250456Z 02009KT 17/17 A299 RMK A01 T01720166  RH  097%=      5-min Rain = 0
KHE1 250457Z 02009KT 17/17 A299 RMK A01 T01710166  RH  097%=      5-min Rain = 0.01
KHE1 250458Z 01008KT 17/17 A299 RMK A01 T01710166  RH  097%=      5-min Rain = 0
KHE1 250459Z 01010G15KT 17/17 A299 RMK A01 T01710166  RH  096%=      5-min Rain = 0.01

Page generated in 0.0702 seconds.